Time,TemperatureF,DewpointF,PressureIn,WindDirection,WindDirectionDegrees,WindSpeedMPH,WindSpeedGustMPH,Humidity,HourlyPrecipIn,Conditions,Clouds,dailyrainin,SoftwareType,DateUTC
2013-03-30 00:00:00,30.0,18.2,29.80,West,270,0.0,0.0,61,0.00,,,0.00,WUHU21623XXSP,2013-03-30 04:00:00,
2013-03-30 00:05:00,29.8,18.4,29.80,West,270,0.0,0.0,62,0.00,,,0.00,WUHU21623XXSP,2013-03-30 04:05:00,
2013-03-30 00:10:00,29.8,18.7,29.80,West,270,0.0,0.0,63,0.00,,,0.00,WUHU21623XXSP,2013-03-30 04:10:00,
2013-03-30 00:15:00,30.0,18.9,29.80,West,270,0.0,0.0,63,0.00,,,0.00,WUHU21623XXSP,2013-03-30 04:15:00,
2013-03-30 00:16:00,30.0,18.9,29.80,West,270,0.0,0.0,63,0.00,,,0.00,WUHU21623XXSP,2013-03-30 04:16:00,
2013-03-30 00:20:00,30.2,19.0,29.80,West,270,0.0,0.0,63,0.00,,,0.00,WUHU21623XXSP,2013-03-30 04:20:00,
2013-03-30 00:21:00,30.2,19.0,29.80,West,270,0.0,0.0,63,0.00,,,0.00,WUHU21623XXSP,2013-03-30 04:21:00,
2013-03-30 00:22:00,30.0,18.9,29.79,West,270,0.0,0.0,63,0.00,,,0.00,WUHU21623XXSP,2013-03-30 04:22:00,
2013-03-30 00:25:00,30.0,18.9,29.79,West,270,0.0,0.0,63,0.00,,,0.00,WUHU21623XXSP,2013-03-30 04:25:00,
2013-03-30 00:26:00,30.0,18.9,29.79,West,270,0.0,0.0,63,0.00,,,0.00,WUHU21623XXSP,2013-03-30 04:26:00,
2013-03-30 00:27:00,30.0,18.9,29.79,West,270,0.0,0.0,63,0.00,,,0.00,WUHU21623XXSP,2013-03-30 04:27:00,
2013-03-30 00:30:00,30.0,18.9,29.79,West,270,0.0,0.0,63,0.00,,,0.00,WUHU21623XXSP,2013-03-30 04:30:00,
2013-03-30 00:31:00,30.0,18.9,29.79,West,270,0.0,0.0,63,0.00,,,0.00,WUHU21623XXSP,2013-03-30 04:31:00,
2013-03-30 00:32:00,30.0,18.9,29.79,West,270,0.0,0.0,63,0.00,,,0.00,WUHU21623XXSP,2013-03-30 04:32:00,
2013-03-30 00:36:00,29.8,18.7,29.79,West,270,0.0,0.0,63,0.00,,,0.00,WUHU21623XXSP,2013-03-30 04:36:00,
2013-03-30 00:37:00,29.8,18.7,29.79,West,270,0.0,0.0,63,0.00,,,0.00,WUHU21623XXSP,2013-03-30 04:37:00,
2013-03-30 00:38:00,29.8,18.7,29.79,West,270,0.0,0.0,63,0.00,,,0.00,WUHU21623XXSP,2013-03-30 04:38:00,
2013-03-30 00:41:00,29.8,18.7,29.79,West,270,0.0,0.0,63,0.00,,,0.00,WUHU21623XXSP,2013-03-30 04:41:00,
2013-03-30 00:42:00,29.8,18.7,29.79,West,270,0.0,0.0,63,0.00,,,0.00,WUHU21623XXSP,2013-03-30 04:42:00,
2013-03-30 00:43:00,29.8,18.7,29.79,West,270,0.0,0.0,63,0.00,,,0.00,WUHU21623XXSP,2013-03-30 04:43:00,
2013-03-30 00:46:00,29.8,18.7,29.79,West,270,0.0,0.0,63,0.00,,,0.00,WUHU21623XXSP,2013-03-30 04:46:00,
2013-03-30 00:47:00,29.8,18.7,29.79,West,270,0.0,0.0,63,0.00,,,0.00,WUHU21623XXSP,2013-03-30 04:47:00,
2013-03-30 00:48:00,30.0,18.9,29.79,West,270,0.0,0.0,63,0.00,,,0.00,WUHU21623XXSP,2013-03-30 04:48:00,
2013-03-30 00:52:00,30.0,19.2,29.79,West,270,0.0,0.0,64,0.00,,,0.00,WUHU21623XXSP,2013-03-30 04:52:00,
2013-03-30 00:53:00,30.0,19.2,29.79,West,270,0.0,0.0,64,0.00,,,0.00,WUHU21623XXSP,2013-03-30 04:53:00,
2013-03-30 00:57:00,30.6,19.8,29.79,West,270,0.0,0.0,64,0.00,,,0.00,WUHU21623XXSP,2013-03-30 04:57:00,
2013-03-30 00:58:00,30.6,19.8,29.79,West,270,0.0,0.0,64,0.00,,,0.00,WUHU21623XXSP,2013-03-30 04:58:00,
2013-03-30 00:59:00,30.7,19.9,29.79,West,270,0.0,0.0,64,0.00,,,0.00,WUHU21623XXSP,2013-03-30 04:59:00,
2013-03-30 01:02:00,30.7,19.9,29.79,West,270,0.0,0.0,64,0.00,,,0.00,WUHU21623XXSP,2013-03-30 05:02:00,
2013-03-30 01:03:00,30.7,19.9,29.79,West,270,0.0,0.0,64,0.00,,,0.00,WUHU21623XXSP,2013-03-30 05:03:00,
2013-03-30 01:04:00,30.7,19.9,29.79,West,270,0.0,0.0,64,0.00,,,0.00,WUHU21623XXSP,2013-03-30 05:04:00,
2013-03-30 01:07:00,30.7,19.9,29.79,West,270,0.0,0.0,64,0.00,,,0.00,WUHU21623XXSP,2013-03-30 05:07:00,
2013-03-30 01:08:00,30.7,19.9,29.79,West,270,0.0,0.0,64,0.00,,,0.00,WUHU21623XXSP,2013-03-30 05:08:00,
2013-03-30 01:09:00,30.7,19.9,29.79,West,270,0.0,0.0,64,0.00,,,0.00,WUHU21623XXSP,2013-03-30 05:09:00,
2013-03-30 01:10:00,30.7,19.9,29.79,West,270,0.0,0.0,64,0.00,,,0.00,WUHU21623XXSP,2013-03-30 05:10:00,
2013-03-30 01:13:00,30.6,19.8,29.79,West,270,0.0,0.0,64,0.00,,,0.00,WUHU21623XXSP,2013-03-30 05:13:00,
2013-03-30 01:14:00,30.6,19.8,29.79,West,270,0.0,0.0,64,0.00,,,0.00,WUHU21623XXSP,2013-03-30 05:14:00,
2013-03-30 01:15:00,30.6,19.8,29.79,West,270,0.0,0.0,64,0.00,,,0.00,WUHU21623XXSP,2013-03-30 05:15:00,
2013-03-30 01:18:00,30.6,19.8,29.79,West,270,0.0,0.0,64,0.00,,,0.00,WUHU21623XXSP,2013-03-30 05:18:00,
2013-03-30 01:19:00,30.6,19.8,29.79,West,270,0.0,0.0,64,0.00,,,0.00,WUHU21623XXSP,2013-03-30 05:19:00,
2013-03-30 01:20:00,30.6,19.8,29.79,West,270,0.0,0.0,64,0.00,,,0.00,WUHU21623XXSP,2013-03-30 05:20:00,
2013-03-30 01:23:00,30.7,19.9,29.79,West,270,0.0,0.0,64,0.00,,,0.00,WUHU21623XXSP,2013-03-30 05:23:00,
2013-03-30 01:24:00,30.6,19.8,29.79,West,270,0.0,0.0,64,0.00,,,0.00,WUHU21623XXSP,2013-03-30 05:24:00,
2013-03-30 01:26:00,30.6,19.8,29.79,West,270,0.0,0.0,64,0.00,,,0.00,WUHU21623XXSP,2013-03-30 05:26:00,
2013-03-30 01:28:00,30.6,19.8,29.79,West,270,0.0,0.0,64,0.00,,,0.00,WUHU21623XXSP,2013-03-30 05:28:00,
2013-03-30 01:29:00,30.6,20.1,29.79,WNW,292,0.0,0.0,65,0.00,,,0.00,WUHU21623XXSP,2013-03-30 05:29:00,
2013-03-30 01:31:00,30.6,20.1,29.79,WNW,292,0.0,0.0,65,0.00,,,0.00,WUHU21623XXSP,2013-03-30 05:31:00,
2013-03-30 01:33:00,30.6,20.1,29.79,WNW,292,0.0,0.0,65,0.00,,,0.00,WUHU21623XXSP,2013-03-30 05:33:00,
2013-03-30 01:34:00,30.6,20.1,29.79,WNW,292,0.0,0.0,65,0.00,,,0.00,WUHU21623XXSP,2013-03-30 05:34:00,
2013-03-30 01:36:00,30.6,20.1,29.79,WNW,292,0.0,0.0,65,0.00,,,0.00,WUHU21623XXSP,2013-03-30 05:36:00,
2013-03-30 01:38:00,30.6,20.1,29.79,WNW,292,0.0,0.0,65,0.00,,,0.00,WUHU21623XXSP,2013-03-30 05:38:00,
2013-03-30 01:39:00,30.6,20.1,29.79,WNW,292,0.0,0.0,65,0.00,,,0.00,WUHU21623XXSP,2013-03-30 05:39:00,
2013-03-30 01:41:00,30.7,20.3,29.79,WNW,292,0.0,0.0,65,0.00,,,0.00,WUHU21623XXSP,2013-03-30 05:41:00,
2013-03-30 01:43:00,30.7,20.3,29.79,WNW,292,0.0,0.0,65,0.00,,,0.00,WUHU21623XXSP,2013-03-30 05:43:00,
2013-03-30 01:44:00,30.7,20.3,29.79,WNW,292,0.0,0.0,65,0.00,,,0.00,WUHU21623XXSP,2013-03-30 05:44:00,
2013-03-30 01:47:00,30.7,20.3,29.79,WNW,292,0.0,0.0,65,0.00,,,0.00,WUHU21623XXSP,2013-03-30 05:47:00,
2013-03-30 01:48:00,30.9,20.8,29.79,WNW,292,0.0,0.0,66,0.00,,,0.00,WUHU21623XXSP,2013-03-30 05:48:00,
2013-03-30 01:49:00,30.9,20.8,29.79,WNW,292,0.0,0.0,66,0.00,,,0.00,WUHU21623XXSP,2013-03-30 05:49:00,
2013-03-30 01:50:00,30.9,20.5,29.79,WNW,292,0.0,0.0,65,0.00,,,0.00,WUHU21623XXSP,2013-03-30 05:50:00,
2013-03-30 01:52:00,30.9,20.5,29.79,WNW,292,0.0,0.0,65,0.00,,,0.00,WUHU21623XXSP,2013-03-30 05:52:00,
2013-03-30 01:53:00,30.9,20.5,29.79,WNW,292,0.0,0.0,65,0.00,,,0.00,WUHU21623XXSP,2013-03-30 05:53:00,
2013-03-30 01:54:00,30.9,20.5,29.79,WNW,292,0.0,0.0,65,0.00,,,0.00,WUHU21623XXSP,2013-03-30 05:54:00,
2013-03-30 01:55:00,30.9,20.5,29.79,WNW,292,0.0,0.0,65,0.00,,,0.00,WUHU21623XXSP,2013-03-30 05:55:00,
2013-03-30 01:57:00,30.9,20.8,29.79,NW,315,0.0,0.0,66,0.00,,,0.00,WUHU21623XXSP,2013-03-30 05:57:00,
2013-03-30 01:59:00,30.9,20.8,29.79,NNW,337,0.0,0.0,66,0.00,,,0.00,WUHU21623XXSP,2013-03-30 05:59:00,
2013-03-30 02:00:00,30.9,20.8,29.79,NNW,337,0.0,0.0,66,0.00,,,0.00,WUHU21623XXSP,2013-03-30 06:00:00,
2013-03-30 02:02:00,31.3,21.2,29.79,NNW,337,0.0,0.0,66,0.00,,,0.00,WUHU21623XXSP,2013-03-30 06:02:00,
2013-03-30 02:04:00,31.6,21.6,29.79,NW,315,0.0,0.0,66,0.00,,,0.00,WUHU21623XXSP,2013-03-30 06:04:00,
2013-03-30 02:05:00,31.8,21.4,29.79,North,0,0.0,0.0,65,0.00,,,0.00,WUHU21623XXSP,2013-03-30 06:05:00,
2013-03-30 02:08:00,31.8,21.4,29.79,NNW,337,0.0,0.0,65,0.00,,,0.00,WUHU21623XXSP,2013-03-30 06:08:00,
2013-03-30 02:09:00,32.2,21.7,29.79,NNW,337,0.0,0.0,65,0.00,,,0.00,WUHU21623XXSP,2013-03-30 06:09:00,
2013-03-30 02:10:00,32.2,21.7,29.79,NNW,337,0.0,0.0,65,0.00,,,0.00,WUHU21623XXSP,2013-03-30 06:10:00,
2013-03-30 02:13:00,32.4,21.9,29.79,NNW,337,0.0,0.0,65,0.00,,,0.00,WUHU21623XXSP,2013-03-30 06:13:00,
2013-03-30 02:14:00,32.5,22.0,29.79,NNW,337,0.0,0.0,65,0.00,,,0.00,WUHU21623XXSP,2013-03-30 06:14:00,
2013-03-30 02:15:00,32.5,21.7,29.79,NNW,337,0.0,0.0,64,0.00,,,0.00,WUHU21623XXSP,2013-03-30 06:15:00,
2013-03-30 02:18:00,32.5,21.7,29.79,NNW,337,0.0,0.0,64,0.00,,,0.00,WUHU21623XXSP,2013-03-30 06:18:00,
2013-03-30 02:19:00,32.5,21.7,29.79,NNW,337,0.0,0.0,64,0.00,,,0.00,WUHU21623XXSP,2013-03-30 06:19:00,
2013-03-30 02:20:00,32.5,21.7,29.79,NNW,337,0.0,0.0,64,0.00,,,0.00,WUHU21623XXSP,2013-03-30 06:20:00,
2013-03-30 02:23:00,32.5,21.7,29.79,NNW,337,0.0,0.0,64,0.00,,,0.00,WUHU21623XXSP,2013-03-30 06:23:00,
2013-03-30 02:24:00,32.4,21.2,29.79,NNW,337,0.0,0.0,63,0.00,,,0.00,WUHU21623XXSP,2013-03-30 06:24:00,
2013-03-30 02:25:00,32.4,21.2,29.79,NNW,337,0.0,0.0,63,0.00,,,0.00,WUHU21623XXSP,2013-03-30 06:25:00,
2013-03-30 02:29:00,32.2,21.0,29.79,NNW,337,0.0,0.0,63,0.00,,,0.00,WUHU21623XXSP,2013-03-30 06:29:00,
2013-03-30 02:30:00,32.2,21.0,29.79,NNW,337,0.0,0.0,63,0.00,,,0.00,WUHU21623XXSP,2013-03-30 06:30:00,
2013-03-30 02:34:00,32.2,21.0,29.79,NNW,337,0.0,0.0,63,0.00,,,0.00,WUHU21623XXSP,2013-03-30 06:34:00,
2013-03-30 02:35:00,31.8,20.7,29.79,NNW,337,0.0,0.0,63,0.00,,,0.00,WUHU21623XXSP,2013-03-30 06:35:00,
2013-03-30 02:36:00,31.8,20.7,29.79,NNW,337,0.0,0.0,63,0.00,,,0.00,WUHU21623XXSP,2013-03-30 06:36:00,
2013-03-30 02:39:00,31.8,20.7,29.79,NNW,337,0.0,0.0,63,0.00,,,0.00,WUHU21623XXSP,2013-03-30 06:39:00,
2013-03-30 02:40:00,31.8,20.7,29.79,NNW,337,0.0,0.0,63,0.00,,,0.00,WUHU21623XXSP,2013-03-30 06:40:00,
2013-03-30 02:41:00,31.8,20.7,29.79,NNW,337,0.0,0.0,63,0.00,,,0.00,WUHU21623XXSP,2013-03-30 06:41:00,
2013-03-30 02:44:00,31.6,20.5,29.79,NNW,337,0.0,0.0,63,0.00,,,0.00,WUHU21623XXSP,2013-03-30 06:44:00,
2013-03-30 02:45:00,31.6,20.5,29.79,NNW,337,0.0,0.0,63,0.00,,,0.00,WUHU21623XXSP,2013-03-30 06:45:00,
2013-03-30 02:46:00,31.6,20.8,29.79,NNW,337,0.0,0.0,64,0.00,,,0.00,WUHU21623XXSP,2013-03-30 06:46:00,
2013-03-30 02:49:00,31.5,20.7,29.79,NNW,337,0.0,0.0,64,0.00,,,0.00,WUHU21623XXSP,2013-03-30 06:49:00,
2013-03-30 02:50:00,31.3,20.5,29.79,NNW,337,0.0,0.0,64,0.00,,,0.00,WUHU21623XXSP,2013-03-30 06:50:00,
2013-03-30 02:51:00,31.3,20.5,29.79,NNW,337,0.0,0.0,64,0.00,,,0.00,WUHU21623XXSP,2013-03-30 06:51:00,
2013-03-30 02:52:00,31.3,20.5,29.79,NNW,337,0.0,0.0,64,0.00,,,0.00,WUHU21623XXSP,2013-03-30 06:52:00,
2013-03-30 02:54:00,30.9,20.1,29.79,NNW,337,0.0,0.0,64,0.00,,,0.00,WUHU21623XXSP,2013-03-30 06:54:00,
2013-03-30 02:55:00,30.9,20.1,29.79,NNW,337,0.0,0.0,64,0.00,,,0.00,WUHU21623XXSP,2013-03-30 06:55:00,
2013-03-30 02:56:00,30.9,20.1,29.79,NNW,337,0.0,0.0,64,0.00,,,0.00,WUHU21623XXSP,2013-03-30 06:56:00,
2013-03-30 02:57:00,30.7,19.9,29.79,NNW,337,0.0,0.0,64,0.00,,,0.00,WUHU21623XXSP,2013-03-30 06:57:00,
2013-03-30 02:59:00,30.7,19.9,29.79,NNW,337,0.0,0.0,64,0.00,,,0.00,WUHU21623XXSP,2013-03-30 06:59:00,
2013-03-30 03:01:00,30.6,19.9,29.79,NNW,337,0.0,0.0,64,0.00,,,0.00,WUHU21623XXSP,2013-03-30 07:01:00,
2013-03-30 03:02:00,30.6,19.9,29.79,NNW,337,0.0,0.0,64,0.00,,,0.00,WUHU21623XXSP,2013-03-30 07:02:00,
2013-03-30 03:05:00,30.4,19.6,29.78,NNW,337,0.0,0.0,64,0.00,,,0.00,WUHU21623XXSP,2013-03-30 07:05:00,
2013-03-30 03:06:00,30.4,19.6,29.78,NNW,337,0.0,0.0,64,0.00,,,0.00,WUHU21623XXSP,2013-03-30 07:06:00,
2013-03-30 03:07:00,30.4,19.6,29.78,NNW,337,0.0,0.0,64,0.00,,,0.00,WUHU21623XXSP,2013-03-30 07:07:00,
2013-03-30 03:10:00,30.0,19.2,29.79,NNW,337,0.0,0.0,64,0.00,,,0.00,WUHU21623XXSP,2013-03-30 07:10:00,
2013-03-30 03:12:00,29.8,19.1,29.78,NNW,337,0.0,0.0,64,0.00,,,0.00,WUHU21623XXSP,2013-03-30 07:12:00,
2013-03-30 03:15:00,29.7,18.9,29.78,NNW,337,0.0,0.0,64,0.00,,,0.00,WUHU21623XXSP,2013-03-30 07:15:00,
2013-03-30 03:17:00,29.3,18.6,29.78,NNW,337,0.0,0.0,64,0.00,,,0.00,WUHU21623XXSP,2013-03-30 07:17:00,
2013-03-30 03:20:00,28.9,18.3,29.78,NNW,337,0.0,0.0,64,0.00,,,0.00,WUHU21623XXSP,2013-03-30 07:20:00,
2013-03-30 03:22:00,28.6,17.9,29.78,NNW,337,0.0,0.0,64,0.00,,,0.00,WUHU21623XXSP,2013-03-30 07:22:00,
2013-03-30 03:25:00,28.6,17.9,29.78,NNW,337,0.0,0.0,64,0.00,,,0.00,WUHU21623XXSP,2013-03-30 07:25:00,
2013-03-30 03:27:00,28.2,17.9,29.78,NNW,337,0.0,0.0,65,0.00,,,0.00,WUHU21623XXSP,2013-03-30 07:27:00,
2013-03-30 03:28:00,28.2,17.9,29.78,NNW,337,0.0,0.0,65,0.00,,,0.00,WUHU21623XXSP,2013-03-30 07:28:00,
2013-03-30 03:30:00,28.2,18.3,29.78,NNW,337,0.0,0.0,66,0.00,,,0.00,WUHU21623XXSP,2013-03-30 07:30:00,
2013-03-30 03:32:00,28.2,18.3,29.78,NNW,337,0.0,0.0,66,0.00,,,0.00,WUHU21623XXSP,2013-03-30 07:32:00,
2013-03-30 03:33:00,28.2,18.3,29.78,NNW,337,0.0,0.0,66,0.00,,,0.00,WUHU21623XXSP,2013-03-30 07:33:00,
2013-03-30 03:35:00,28.2,18.3,29.78,NNW,337,0.0,0.0,66,0.00,,,0.00,WUHU21623XXSP,2013-03-30 07:35:00,
2013-03-30 03:37:00,28.2,18.7,29.78,NNW,337,0.0,0.0,67,0.00,,,0.00,WUHU21623XXSP,2013-03-30 07:37:00,
2013-03-30 03:38:00,28.2,18.7,29.78,NNW,337,0.0,0.0,67,0.00,,,0.00,WUHU21623XXSP,2013-03-30 07:38:00,
2013-03-30 03:40:00,28.2,18.7,29.78,NNW,337,0.0,0.0,67,0.00,,,0.00,WUHU21623XXSP,2013-03-30 07:40:00,
2013-03-30 03:42:00,28.2,18.7,29.78,NNW,337,0.0,0.0,67,0.00,,,0.00,WUHU21623XXSP,2013-03-30 07:42:00,
2013-03-30 03:43:00,28.2,18.7,29.78,NNW,337,0.0,0.0,67,0.00,,,0.00,WUHU21623XXSP,2013-03-30 07:43:00,
2013-03-30 03:44:00,28.2,18.7,29.78,NNW,337,0.0,0.0,67,0.00,,,0.00,WUHU21623XXSP,2013-03-30 07:44:00,
2013-03-30 03:46:00,28.2,18.7,29.78,NNW,337,0.0,0.0,67,0.00,,,0.00,WUHU21623XXSP,2013-03-30 07:46:00,
2013-03-30 03:47:00,28.2,18.7,29.78,NNW,337,0.0,0.0,67,0.00,,,0.00,WUHU21623XXSP,2013-03-30 07:47:00,
2013-03-30 03:48:00,28.2,18.7,29.78,NNW,337,0.0,0.0,67,0.00,,,0.00,WUHU21623XXSP,2013-03-30 07:48:00,
2013-03-30 03:49:00,28.2,18.7,29.78,NNW,337,0.0,0.0,67,0.00,,,0.00,WUHU21623XXSP,2013-03-30 07:49:00,
2013-03-30 03:51:00,28.6,19.4,29.78,NNW,337,0.0,0.0,68,0.00,,,0.00,WUHU21623XXSP,2013-03-30 07:51:00,
2013-03-30 03:53:00,28.6,19.4,29.78,NNW,337,0.0,0.0,68,0.00,,,0.00,WUHU21623XXSP,2013-03-30 07:53:00,
2013-03-30 03:54:00,28.6,19.4,29.78,NNW,337,0.0,0.0,68,0.00,,,0.00,WUHU21623XXSP,2013-03-30 07:54:00,
2013-03-30 03:56:00,28.6,19.4,29.78,NNW,337,0.0,0.0,68,0.00,,,0.00,WUHU21623XXSP,2013-03-30 07:56:00,
2013-03-30 03:58:00,28.6,19.4,29.78,NNW,337,0.0,0.0,68,0.00,,,0.00,WUHU21623XXSP,2013-03-30 07:58:00,
2013-03-30 03:59:00,28.6,19.4,29.78,NNW,337,0.0,0.0,68,0.00,,,0.00,WUHU21623XXSP,2013-03-30 07:59:00,
2013-03-30 04:01:00,28.6,19.4,29.78,NNW,337,0.0,0.0,68,0.00,,,0.00,WUHU21623XXSP,2013-03-30 08:01:00,
2013-03-30 04:03:00,28.4,19.2,29.78,NNW,337,0.0,0.0,68,0.00,,,0.00,WUHU21623XXSP,2013-03-30 08:03:00,
2013-03-30 04:05:00,28.2,19.0,29.78,NNW,337,0.0,0.0,68,0.00,,,0.00,WUHU21623XXSP,2013-03-30 08:05:00,
2013-03-30 04:07:00,28.2,19.0,29.78,NNW,337,0.0,0.0,68,0.00,,,0.00,WUHU21623XXSP,2013-03-30 08:07:00,
2013-03-30 04:08:00,28.2,19.0,29.78,NNW,337,0.0,0.0,68,0.00,,,0.00,WUHU21623XXSP,2013-03-30 08:08:00,
2013-03-30 04:09:00,28.2,19.0,29.78,NNW,337,0.0,0.0,68,0.00,,,0.00,WUHU21623XXSP,2013-03-30 08:09:00,
2013-03-30 04:10:00,28.2,19.0,29.78,NNW,337,0.0,0.0,68,0.00,,,0.00,WUHU21623XXSP,2013-03-30 08:10:00,
2013-03-30 04:12:00,28.0,18.9,29.78,NNW,337,0.0,0.0,68,0.00,,,0.00,WUHU21623XXSP,2013-03-30 08:12:00,
2013-03-30 04:14:00,28.0,18.9,29.78,NNW,337,0.0,0.0,68,0.00,,,0.00,WUHU21623XXSP,2013-03-30 08:14:00,
2013-03-30 04:15:00,27.7,18.5,29.78,NNW,337,0.0,0.0,68,0.00,,,0.00,WUHU21623XXSP,2013-03-30 08:15:00,
2013-03-30 04:17:00,27.7,18.5,29.78,NNW,337,0.0,0.0,68,0.00,,,0.00,WUHU21623XXSP,2013-03-30 08:17:00,
2013-03-30 04:19:00,27.7,18.5,29.77,NNW,337,0.0,0.0,68,0.00,,,0.00,WUHU21623XXSP,2013-03-30 08:19:00,
2013-03-30 04:20:00,27.5,18.3,29.77,NNW,337,0.0,0.0,68,0.00,,,0.00,WUHU21623XXSP,2013-03-30 08:20:00,
2013-03-30 04:22:00,27.3,18.1,29.77,NNW,337,0.0,0.0,68,0.00,,,0.00,WUHU21623XXSP,2013-03-30 08:22:00,
2013-03-30 04:24:00,27.3,18.1,29.77,NNW,337,0.0,0.0,68,0.00,,,0.00,WUHU21623XXSP,2013-03-30 08:24:00,
2013-03-30 04:25:00,27.1,18.3,29.77,NNW,337,0.0,0.0,69,0.00,,,0.00,WUHU21623XXSP,2013-03-30 08:25:00,
2013-03-30 04:27:00,27.1,18.3,29.78,NNW,337,0.0,0.0,69,0.00,,,0.00,WUHU21623XXSP,2013-03-30 08:27:00,
2013-03-30 04:29:00,27.1,18.3,29.78,NNW,337,0.0,0.0,69,0.00,,,0.00,WUHU21623XXSP,2013-03-30 08:29:00,
2013-03-30 04:30:00,27.1,18.3,29.78,NNW,337,0.0,0.0,69,0.00,,,0.00,WUHU21623XXSP,2013-03-30 08:30:00,
2013-03-30 04:31:00,27.1,18.3,29.78,NNW,337,0.0,0.0,69,0.00,,,0.00,WUHU21623XXSP,2013-03-30 08:31:00,
2013-03-30 04:32:00,27.1,18.3,29.78,NNW,337,0.0,0.0,69,0.00,,,0.00,WUHU21623XXSP,2013-03-30 08:32:00,
2013-03-30 04:34:00,27.0,18.1,29.78,NNW,337,0.0,0.0,69,0.00,,,0.00,WUHU21623XXSP,2013-03-30 08:34:00,
2013-03-30 04:35:00,26.8,18.3,29.77,NNW,337,0.0,0.0,70,0.00,,,0.00,WUHU21623XXSP,2013-03-30 08:35:00,
2013-03-30 04:36:00,26.8,18.3,29.77,NNW,337,0.0,0.0,70,0.00,,,0.00,WUHU21623XXSP,2013-03-30 08:36:00,
2013-03-30 04:37:00,26.8,18.3,29.78,NNW,337,0.0,0.0,70,0.00,,,0.00,WUHU21623XXSP,2013-03-30 08:37:00,
2013-03-30 04:39:00,26.4,18.0,29.77,NNW,337,0.0,0.0,70,0.00,,,0.00,WUHU21623XXSP,2013-03-30 08:39:00,
2013-03-30 04:40:00,26.4,18.0,29.77,NNW,337,0.0,0.0,70,0.00,,,0.00,WUHU21623XXSP,2013-03-30 08:40:00,
2013-03-30 04:42:00,26.4,18.0,29.77,NNW,337,0.0,0.0,70,0.00,,,0.00,WUHU21623XXSP,2013-03-30 08:42:00,
2013-03-30 04:44:00,26.2,18.1,29.77,NNW,337,0.0,0.0,71,0.00,,,0.00,WUHU21623XXSP,2013-03-30 08:44:00,
2013-03-30 04:45:00,26.1,17.6,29.77,NNW,337,0.0,0.0,70,0.00,,,0.00,WUHU21623XXSP,2013-03-30 08:45:00,
2013-03-30 04:47:00,26.1,17.6,29.77,NNW,337,0.0,0.0,70,0.00,,,0.00,WUHU21623XXSP,2013-03-30 08:47:00,
2013-03-30 04:50:00,25.5,17.4,29.77,NNW,337,0.0,0.0,71,0.00,,,0.00,WUHU21623XXSP,2013-03-30 08:50:00,
2013-03-30 04:52:00,25.5,17.4,29.77,NNW,337,0.0,0.0,71,0.00,,,0.00,WUHU21623XXSP,2013-03-30 08:52:00,
2013-03-30 04:55:00,25.2,17.0,29.77,NNW,337,0.0,0.0,71,0.00,,,0.00,WUHU21623XXSP,2013-03-30 08:55:00,
2013-03-30 04:57:00,25.0,16.8,29.77,NNW,337,0.0,0.0,71,0.00,,,0.00,WUHU21623XXSP,2013-03-30 08:57:00,
2013-03-30 04:58:00,25.0,16.8,29.77,NNW,337,0.0,0.0,71,0.00,,,0.00,WUHU21623XXSP,2013-03-30 08:58:00,
2013-03-30 05:00:00,24.6,16.5,29.77,NNW,337,0.0,0.0,71,0.00,,,0.00,WUHU21623XXSP,2013-03-30 09:00:00,
2013-03-30 05:03:00,24.3,16.2,29.77,NNW,337,0.0,0.0,71,0.00,,,0.00,WUHU21623XXSP,2013-03-30 09:03:00,
2013-03-30 05:05:00,24.1,16.0,29.77,NW,315,0.0,0.0,71,0.00,,,0.00,WUHU21623XXSP,2013-03-30 09:05:00,
2013-03-30 05:06:00,24.1,16.0,29.77,NW,315,0.0,0.0,71,0.00,,,0.00,WUHU21623XXSP,2013-03-30 09:06:00,
2013-03-30 05:08:00,23.9,15.8,29.77,NW,315,0.0,0.0,71,0.00,,,0.00,WUHU21623XXSP,2013-03-30 09:08:00,
2013-03-30 05:11:00,23.7,15.7,29.77,NW,315,0.0,0.0,71,0.00,,,0.00,WUHU21623XXSP,2013-03-30 09:11:00,
2013-03-30 05:13:00,23.5,15.5,29.77,NW,315,0.0,0.0,71,0.00,,,0.00,WUHU21623XXSP,2013-03-30 09:13:00,
2013-03-30 05:16:00,23.4,15.7,29.78,WNW,292,0.0,0.0,72,0.00,,,0.00,WUHU21623XXSP,2013-03-30 09:16:00,
2013-03-30 05:17:00,23.4,15.7,29.78,WNW,292,0.0,0.0,72,0.00,,,0.00,WUHU21623XXSP,2013-03-30 09:17:00,
2013-03-30 05:18:00,23.2,15.5,29.77,WNW,292,0.0,0.0,72,0.00,,,0.00,WUHU21623XXSP,2013-03-30 09:18:00,
2013-03-30 05:22:00,22.8,15.2,29.78,WNW,292,0.0,0.0,72,0.00,,,0.00,WUHU21623XXSP,2013-03-30 09:22:00,
2013-03-30 05:24:00,22.8,15.2,29.78,WNW,292,0.0,0.0,72,0.00,,,0.00,WUHU21623XXSP,2013-03-30 09:24:00,
2013-03-30 05:27:00,22.8,15.2,29.78,WNW,292,0.0,0.0,72,0.00,,,0.00,WUHU21623XXSP,2013-03-30 09:27:00,
2013-03-30 05:29:00,22.6,15.0,29.78,WNW,292,0.0,0.0,72,0.00,,,0.00,WUHU21623XXSP,2013-03-30 09:29:00,
2013-03-30 05:32:00,22.6,15.0,29.78,WNW,292,0.0,0.0,72,0.00,,,0.00,WUHU21623XXSP,2013-03-30 09:32:00,
2013-03-30 05:34:00,22.6,15.0,29.77,WNW,292,0.0,0.0,72,0.00,,,0.00,WUHU21623XXSP,2013-03-30 09:34:00,
2013-03-30 05:37:00,22.5,14.8,29.78,West,270,0.0,0.0,72,0.00,,,0.00,WUHU21623XXSP,2013-03-30 09:37:00,
2013-03-30 05:39:00,22.6,15.3,29.77,West,270,0.0,0.0,73,0.00,,,0.00,WUHU21623XXSP,2013-03-30 09:39:00,
2013-03-30 05:42:00,22.6,15.3,29.78,West,270,0.0,0.0,73,0.00,,,0.00,WUHU21623XXSP,2013-03-30 09:42:00,
2013-03-30 05:44:00,22.6,15.3,29.77,West,270,0.0,0.0,73,0.00,,,0.00,WUHU21623XXSP,2013-03-30 09:44:00,
2013-03-30 05:45:00,22.6,15.3,29.77,West,270,0.0,0.0,73,0.00,,,0.00,WUHU21623XXSP,2013-03-30 09:45:00,
2013-03-30 05:47:00,22.8,15.8,29.78,West,270,0.0,0.0,74,0.00,,,0.00,WUHU21623XXSP,2013-03-30 09:47:00,
2013-03-30 05:49:00,22.8,15.8,29.78,West,270,0.0,0.0,74,0.00,,,0.00,WUHU21623XXSP,2013-03-30 09:49:00,
2013-03-30 05:50:00,23.0,15.9,29.78,West,270,0.0,0.0,74,0.00,,,0.00,WUHU21623XXSP,2013-03-30 09:50:00,
2013-03-30 05:53:00,23.2,15.9,29.78,West,270,0.0,0.0,74,0.00,,,0.00,WUHU21623XXSP,2013-03-30 09:53:00,
2013-03-30 05:54:00,23.2,16.1,29.78,West,270,0.0,0.0,74,0.00,,,0.00,WUHU21623XXSP,2013-03-30 09:54:00,
2013-03-30 05:55:00,23.2,16.1,29.78,West,270,0.0,0.0,74,0.00,,,0.00,WUHU21623XXSP,2013-03-30 09:55:00,
2013-03-30 05:58:00,23.4,16.1,29.78,West,270,0.0,0.0,74,0.00,,,0.00,WUHU21623XXSP,2013-03-30 09:58:00,
2013-03-30 05:59:00,23.4,16.3,29.78,West,270,0.0,0.0,74,0.00,,,0.00,WUHU21623XXSP,2013-03-30 09:59:00,
2013-03-30 06:00:00,23.4,16.3,29.78,West,270,0.0,0.0,74,0.00,,,0.00,WUHU21623XXSP,2013-03-30 10:00:00,
2013-03-30 06:03:00,23.2,16.1,29.78,West,270,0.0,0.0,74,0.00,,,0.00,WUHU21623XXSP,2013-03-30 10:03:00,
2013-03-30 06:04:00,23.2,16.1,29.78,West,270,0.0,0.0,74,0.00,,,0.00,WUHU21623XXSP,2013-03-30 10:04:00,
2013-03-30 06:05:00,23.2,16.1,29.78,West,270,0.0,0.0,74,0.00,,,0.00,WUHU21623XXSP,2013-03-30 10:05:00,
2013-03-30 06:08:00,23.2,16.1,29.78,West,270,0.0,0.0,74,0.00,,,0.00,WUHU21623XXSP,2013-03-30 10:08:00,
2013-03-30 06:10:00,23.2,16.1,29.77,West,270,0.0,0.0,74,0.00,,,0.00,WUHU21623XXSP,2013-03-30 10:10:00,
2013-03-30 06:13:00,23.2,16.1,29.77,West,270,0.0,0.0,74,0.00,,,0.00,WUHU21623XXSP,2013-03-30 10:13:00,
2013-03-30 06:15:00,23.2,16.1,29.77,West,270,0.0,0.0,74,0.00,,,0.00,WUHU21623XXSP,2013-03-30 10:15:00,
2013-03-30 06:18:00,23.2,16.1,29.77,West,270,0.0,0.0,74,0.00,,,0.00,WUHU21623XXSP,2013-03-30 10:18:00,
2013-03-30 06:20:00,23.4,16.1,29.78,West,270,0.0,0.0,74,0.00,,,0.00,WUHU21623XXSP,2013-03-30 10:20:00,
2013-03-30 06:23:00,23.5,16.4,29.78,West,270,0.0,0.0,74,0.00,,,0.00,WUHU21623XXSP,2013-03-30 10:23:00,
2013-03-30 06:25:00,23.5,16.8,29.77,West,270,0.0,0.0,75,0.00,,,0.00,WUHU21623XXSP,2013-03-30 10:25:00,
2013-03-30 06:29:00,23.9,17.1,29.78,West,270,0.0,0.0,75,0.00,,,0.00,WUHU21623XXSP,2013-03-30 10:29:00,
2013-03-30 06:30:00,23.9,17.1,29.78,West,270,0.0,0.0,75,0.00,,,0.00,WUHU21623XXSP,2013-03-30 10:30:00,
2013-03-30 06:31:00,24.1,17.3,29.77,West,270,0.0,0.0,75,0.00,,,0.00,WUHU21623XXSP,2013-03-30 10:31:00,
2013-03-30 06:34:00,24.4,17.6,29.78,West,270,0.0,0.0,75,0.00,,,0.00,WUHU21623XXSP,2013-03-30 10:34:00,
2013-03-30 06:35:00,24.4,17.6,29.78,West,270,0.0,0.0,75,0.00,,,0.00,WUHU21623XXSP,2013-03-30 10:35:00,
2013-03-30 06:37:00,24.6,17.8,29.78,West,270,0.0,0.0,75,0.00,,,0.00,WUHU21623XXSP,2013-03-30 10:37:00,
2013-03-30 06:39:00,24.6,17.8,29.78,West,270,0.0,0.0,75,0.00,,,0.00,WUHU21623XXSP,2013-03-30 10:39:00,
2013-03-30 06:40:00,24.6,17.8,29.78,West,270,0.0,0.0,75,0.00,,,0.00,WUHU21623XXSP,2013-03-30 10:40:00,
2013-03-30 06:42:00,24.6,17.8,29.78,West,270,0.0,0.0,75,0.00,,,0.00,WUHU21623XXSP,2013-03-30 10:42:00,
2013-03-30 06:44:00,24.6,17.8,29.78,West,270,0.0,0.0,75,0.00,,,0.00,WUHU21623XXSP,2013-03-30 10:44:00,
2013-03-30 06:45:00,24.6,17.8,29.78,West,270,0.0,0.0,75,0.00,,,0.00,WUHU21623XXSP,2013-03-30 10:45:00,
2013-03-30 06:47:00,24.6,17.8,29.78,West,270,0.0,0.0,75,0.00,,,0.00,WUHU21623XXSP,2013-03-30 10:47:00,
2013-03-30 06:49:00,24.4,17.3,29.78,West,270,0.0,0.0,74,0.00,,,0.00,WUHU21623XXSP,2013-03-30 10:49:00,
2013-03-30 06:50:00,24.4,17.3,29.78,West,270,0.0,0.0,74,0.00,,,0.00,WUHU21623XXSP,2013-03-30 10:50:00,
2013-03-30 06:52:00,24.4,17.3,29.78,West,270,0.0,0.0,74,0.00,,,0.00,WUHU21623XXSP,2013-03-30 10:52:00,
2013-03-30 06:54:00,24.4,17.3,29.78,West,270,0.0,0.0,74,0.00,,,0.00,WUHU21623XXSP,2013-03-30 10:54:00,
2013-03-30 06:55:00,24.4,17.3,29.78,West,270,0.0,0.0,74,0.00,,,0.00,WUHU21623XXSP,2013-03-30 10:55:00,
2013-03-30 06:56:00,24.1,17.0,29.78,West,270,0.0,0.0,74,0.00,,,0.00,WUHU21623XXSP,2013-03-30 10:56:00,
2013-03-30 06:57:00,24.1,17.0,29.78,West,270,0.0,0.0,74,0.00,,,0.00,WUHU21623XXSP,2013-03-30 10:57:00,
2013-03-30 06:59:00,24.1,17.0,29.78,West,270,0.0,0.0,74,0.00,,,0.00,WUHU21623XXSP,2013-03-30 10:59:00,
2013-03-30 07:01:00,24.1,17.0,29.78,West,270,0.0,0.0,74,0.00,,,0.00,WUHU21623XXSP,2013-03-30 11:01:00,
2013-03-30 07:02:00,24.1,17.0,29.78,West,270,0.0,0.0,74,0.00,,,0.00,WUHU21623XXSP,2013-03-30 11:02:00,
2013-03-30 07:04:00,24.1,17.0,29.78,West,270,0.0,0.0,74,0.00,,,0.00,WUHU21623XXSP,2013-03-30 11:04:00,
2013-03-30 07:06:00,24.1,17.0,29.78,West,270,0.0,0.0,74,0.00,,,0.00,WUHU21623XXSP,2013-03-30 11:06:00,
2013-03-30 07:07:00,24.3,17.1,29.78,West,270,0.0,0.0,74,0.00,,,0.00,WUHU21623XXSP,2013-03-30 11:07:00,
2013-03-30 07:08:00,24.3,17.1,29.78,West,270,0.0,0.0,74,0.00,,,0.00,WUHU21623XXSP,2013-03-30 11:08:00,
2013-03-30 07:09:00,24.1,17.0,29.78,West,270,0.0,0.0,74,0.00,,,0.00,WUHU21623XXSP,2013-03-30 11:09:00,
2013-03-30 07:11:00,24.3,17.4,29.78,West,270,0.0,0.0,75,0.00,,,0.00,WUHU21623XXSP,2013-03-30 11:11:00,
2013-03-30 07:12:00,24.3,17.4,29.78,West,270,0.0,0.0,75,0.00,,,0.00,WUHU21623XXSP,2013-03-30 11:12:00,
2013-03-30 07:13:00,24.3,17.4,29.78,West,270,0.0,0.0,75,0.00,,,0.00,WUHU21623XXSP,2013-03-30 11:13:00,
2013-03-30 07:14:00,24.4,17.6,29.78,West,270,0.0,0.0,75,0.00,,,0.00,WUHU21623XXSP,2013-03-30 11:14:00,
2013-03-30 07:17:00,24.4,17.6,29.78,West,270,0.0,0.0,75,0.00,,,0.00,WUHU21623XXSP,2013-03-30 11:17:00,
2013-03-30 07:18:00,24.4,17.6,29.78,West,270,0.0,0.0,75,0.00,,,0.00,WUHU21623XXSP,2013-03-30 11:18:00,
2013-03-30 07:20:00,24.3,17.4,29.78,West,270,0.0,0.0,75,0.00,,,0.00,WUHU21623XXSP,2013-03-30 11:20:00,
2013-03-30 07:22:00,24.1,17.3,29.78,West,270,0.0,0.0,75,0.00,,,0.00,WUHU21623XXSP,2013-03-30 11:22:00,
2013-03-30 07:23:00,24.1,17.3,29.78,West,270,0.0,0.0,75,0.00,,,0.00,WUHU21623XXSP,2013-03-30 11:23:00,
2013-03-30 07:25:00,24.4,17.6,29.78,West,270,0.0,0.0,75,0.00,,,0.00,WUHU21623XXSP,2013-03-30 11:25:00,
2013-03-30 07:27:00,24.1,17.6,29.78,West,270,0.0,0.0,75,0.00,,,0.00,WUHU21623XXSP,2013-03-30 11:27:00,
2013-03-30 07:28:00,24.4,17.6,29.78,West,270,0.0,0.0,75,0.00,,,0.00,WUHU21623XXSP,2013-03-30 11:28:00,
2013-03-30 07:30:00,24.4,17.6,29.78,West,270,0.0,0.0,75,0.00,,,0.00,WUHU21623XXSP,2013-03-30 11:30:00,
2013-03-30 07:32:00,24.4,17.6,29.78,West,270,0.0,0.0,75,0.00,,,0.00,WUHU21623XXSP,2013-03-30 11:32:00,
2013-03-30 07:33:00,24.4,17.6,29.78,West,270,0.0,0.0,75,0.00,,,0.00,WUHU21623XXSP,2013-03-30 11:33:00,
2013-03-30 07:35:00,24.4,17.6,29.79,West,270,0.0,0.0,75,0.00,,,0.00,WUHU21623XXSP,2013-03-30 11:35:00,
2013-03-30 07:38:00,24.6,17.8,29.79,West,270,0.0,0.0,75,0.00,,,0.00,WUHU21623XXSP,2013-03-30 11:38:00,
2013-03-30 07:39:00,24.6,17.8,29.79,West,270,0.0,0.0,75,0.00,,,0.00,WUHU21623XXSP,2013-03-30 11:39:00,
2013-03-30 07:40:00,24.6,17.8,29.79,West,270,0.0,0.0,75,0.00,,,0.00,WUHU21623XXSP,2013-03-30 11:40:00,
2013-03-30 07:43:00,24.6,17.8,29.80,West,270,0.0,0.0,75,0.00,,,0.00,WUHU21623XXSP,2013-03-30 11:43:00,
2013-03-30 07:44:00,24.6,17.8,29.80,West,270,0.0,0.0,75,0.00,,,0.00,WUHU21623XXSP,2013-03-30 11:44:00,
2013-03-30 07:45:00,24.6,17.8,29.80,West,270,0.0,0.0,75,0.00,,,0.00,WUHU21623XXSP,2013-03-30 11:45:00,
2013-03-30 07:48:00,24.6,17.8,29.80,West,270,0.0,0.0,75,0.00,,,0.00,WUHU21623XXSP,2013-03-30 11:48:00,
2013-03-30 07:49:00,24.6,17.8,29.80,West,270,0.0,0.0,75,0.00,,,0.00,WUHU21623XXSP,2013-03-30 11:49:00,
2013-03-30 07:51:00,24.6,17.8,29.80,West,270,0.0,0.0,75,0.00,,,0.00,WUHU21623XXSP,2013-03-30 11:51:00,
2013-03-30 07:53:00,24.6,17.8,29.80,West,270,0.0,0.0,74,0.00,,,0.00,WUHU21623XXSP,2013-03-30 11:53:00,
2013-03-30 07:54:00,24.6,17.5,29.80,West,270,0.0,0.0,74,0.00,,,0.00,WUHU21623XXSP,2013-03-30 11:54:00,
2013-03-30 07:56:00,24.6,17.5,29.80,West,270,0.0,0.0,74,0.00,,,0.00,WUHU21623XXSP,2013-03-30 11:56:00,
2013-03-30 07:58:00,24.4,17.3,29.80,West,270,0.0,0.0,74,0.00,,,0.00,WUHU21623XXSP,2013-03-30 11:58:00,
2013-03-30 07:59:00,24.4,17.3,29.80,West,270,0.0,0.0,74,0.00,,,0.00,WUHU21623XXSP,2013-03-30 11:59:00,
2013-03-30 08:01:00,24.4,17.3,29.80,West,270,0.0,0.0,74,0.00,,,0.00,WUHU21623XXSP,2013-03-30 12:01:00,
2013-03-30 08:03:00,24.6,17.5,29.80,West,270,0.0,0.0,74,0.00,,,0.00,WUHU21623XXSP,2013-03-30 12:03:00,
2013-03-30 08:05:00,24.6,17.5,29.80,West,270,0.0,0.0,74,0.00,,,0.00,WUHU21623XXSP,2013-03-30 12:05:00,
2013-03-30 08:06:00,24.6,17.5,29.80,West,270,0.0,0.0,74,0.00,,,0.00,WUHU21623XXSP,2013-03-30 12:06:00,
2013-03-30 08:09:00,24.6,17.5,29.80,West,270,0.0,0.0,75,0.00,,,0.00,WUHU21623XXSP,2013-03-30 12:09:00,
2013-03-30 08:10:00,24.6,17.5,29.80,West,270,0.0,0.0,75,0.00,,,0.00,WUHU21623XXSP,2013-03-30 12:10:00,
2013-03-30 08:11:00,25.0,18.1,29.80,West,270,0.0,0.0,75,0.00,,,0.00,WUHU21623XXSP,2013-03-30 12:11:00,
2013-03-30 08:14:00,25.0,18.1,29.80,West,270,0.0,0.0,75,0.00,,,0.00,WUHU21623XXSP,2013-03-30 12:14:00,
2013-03-30 08:15:00,25.0,18.1,29.80,West,270,0.0,0.0,75,0.00,,,0.00,WUHU21623XXSP,2013-03-30 12:15:00,
2013-03-30 08:16:00,25.2,18.3,29.80,West,270,0.0,0.0,75,0.00,,,0.00,WUHU21623XXSP,2013-03-30 12:16:00,
2013-03-30 08:19:00,25.3,18.5,29.79,West,270,0.0,0.0,75,0.00,,,0.00,WUHU21623XXSP,2013-03-30 12:19:00,
2013-03-30 08:20:00,25.5,18.6,29.80,West,270,0.0,0.0,75,0.00,,,0.00,WUHU21623XXSP,2013-03-30 12:20:00,
2013-03-30 08:22:00,25.7,18.8,29.80,West,270,0.0,0.0,75,0.00,,,0.00,WUHU21623XXSP,2013-03-30 12:22:00,
2013-03-30 08:24:00,26.1,19.1,29.80,West,270,0.0,0.0,75,0.00,,,0.00,WUHU21623XXSP,2013-03-30 12:24:00,
2013-03-30 08:25:00,26.1,19.1,29.80,West,270,0.0,0.0,75,0.00,,,0.00,WUHU21623XXSP,2013-03-30 12:25:00,
2013-03-30 08:28:00,26.4,19.5,29.80,West,270,0.0,0.0,75,0.00,,,0.00,WUHU21623XXSP,2013-03-30 12:28:00,
2013-03-30 08:29:00,26.4,19.5,29.80,West,270,0.0,0.0,75,0.00,,,0.00,WUHU21623XXSP,2013-03-30 12:29:00,
2013-03-30 08:30:00,26.8,19.9,29.80,West,270,0.0,0.0,75,0.00,,,0.00,WUHU21623XXSP,2013-03-30 12:30:00,
2013-03-30 08:33:00,27.1,20.2,29.79,West,270,0.0,0.0,75,0.00,,,0.00,WUHU21623XXSP,2013-03-30 12:33:00,
2013-03-30 08:34:00,27.1,20.2,29.79,West,270,0.0,0.0,75,0.00,,,0.00,WUHU21623XXSP,2013-03-30 12:34:00,
2013-03-30 08:35:00,27.3,20.4,29.79,West,270,0.0,0.0,75,0.00,,,0.00,WUHU21623XXSP,2013-03-30 12:35:00,
2013-03-30 08:38:00,27.7,20.8,29.79,West,270,0.0,0.0,75,0.00,,,0.00,WUHU21623XXSP,2013-03-30 12:38:00,
2013-03-30 08:39:00,27.7,20.8,29.79,West,270,0.0,0.0,75,0.00,,,0.00,WUHU21623XXSP,2013-03-30 12:39:00,
2013-03-30 08:40:00,27.7,20.8,29.79,West,270,0.0,0.0,75,0.00,,,0.00,WUHU21623XXSP,2013-03-30 12:40:00,
2013-03-30 08:43:00,28.2,21.1,29.79,West,270,0.0,0.0,75,0.00,,,0.00,WUHU21623XXSP,2013-03-30 12:43:00,
2013-03-30 08:44:00,28.2,21.1,29.79,West,270,0.0,0.0,75,0.00,,,0.00,WUHU21623XXSP,2013-03-30 12:44:00,
2013-03-30 08:45:00,28.2,21.1,29.79,West,270,0.0,0.0,75,0.00,,,0.00,WUHU21623XXSP,2013-03-30 12:45:00,
2013-03-30 08:46:00,28.6,21.3,29.79,West,270,0.0,0.0,75,0.00,,,0.00,WUHU21623XXSP,2013-03-30 12:46:00,
2013-03-30 08:49:00,28.8,21.6,29.79,West,270,0.0,0.0,75,0.00,,,0.00,WUHU21623XXSP,2013-03-30 12:49:00,
2013-03-30 08:50:00,28.9,21.8,29.79,West,270,0.0,0.0,75,0.00,,,0.00,WUHU21623XXSP,2013-03-30 12:50:00,
2013-03-30 08:51:00,28.9,21.8,29.79,West,270,0.0,0.0,75,0.00,,,0.00,WUHU21623XXSP,2013-03-30 12:51:00,
2013-03-30 08:54:00,29.5,22.2,29.79,West,270,0.0,0.0,75,0.00,,,0.00,WUHU21623XXSP,2013-03-30 12:54:00,
2013-03-30 08:55:00,29.5,22.2,29.79,West,270,0.0,0.0,75,0.00,,,0.00,WUHU21623XXSP,2013-03-30 12:55:00,
2013-03-30 08:56:00,29.7,22.7,29.79,West,270,0.0,0.0,75,0.00,,,0.00,WUHU21623XXSP,2013-03-30 12:56:00,
2013-03-30 08:59:00,30.0,23.0,29.79,West,270,0.0,0.0,75,0.00,,,0.00,WUHU21623XXSP,2013-03-30 12:59:00,
2013-03-30 09:00:00,30.0,23.0,29.79,West,270,0.0,0.0,75,0.00,,,0.00,WUHU21623XXSP,2013-03-30 13:00:00,
2013-03-30 09:01:00,30.4,23.0,29.79,West,270,0.0,0.0,75,0.00,,,0.00,WUHU21623XXSP,2013-03-30 13:01:00,
2013-03-30 09:04:00,30.7,23.4,29.79,West,270,0.0,0.0,75,0.00,,,0.00,WUHU21623XXSP,2013-03-30 13:04:00,
2013-03-30 09:05:00,30.9,23.9,29.79,West,270,0.0,0.0,75,0.00,,,0.00,WUHU21623XXSP,2013-03-30 13:05:00,
2013-03-30 09:06:00,30.9,23.9,29.79,West,270,0.0,0.0,75,0.00,,,0.00,WUHU21623XXSP,2013-03-30 13:06:00,
2013-03-30 09:09:00,31.6,24.3,29.79,West,270,0.0,0.0,75,0.00,,,0.00,WUHU21623XXSP,2013-03-30 13:09:00,
2013-03-30 09:10:00,31.6,24.3,29.79,West,270,0.0,0.0,75,0.00,,,0.00,WUHU21623XXSP,2013-03-30 13:10:00,
2013-03-30 09:11:00,31.6,24.3,29.79,West,270,0.0,0.0,75,0.00,,,0.00,WUHU21623XXSP,2013-03-30 13:11:00,
2013-03-30 09:12:00,32.0,24.6,29.79,West,270,0.0,0.0,75,0.00,,,0.00,WUHU21623XXSP,2013-03-30 13:12:00,
2013-03-30 09:15:00,32.4,25.6,29.79,West,270,0.0,0.0,76,0.00,,,0.00,WUHU21623XXSP,2013-03-30 13:15:00,
2013-03-30 09:16:00,32.9,25.8,29.79,West,270,0.0,0.0,75,0.00,,,0.00,WUHU21623XXSP,2013-03-30 13:16:00,
2013-03-30 09:17:00,32.9,25.8,29.79,West,270,0.0,0.0,75,0.00,,,0.00,WUHU21623XXSP,2013-03-30 13:17:00,
2013-03-30 09:20:00,33.8,26.6,29.79,West,270,0.0,0.0,75,0.00,,,0.00,WUHU21623XXSP,2013-03-30 13:20:00,
2013-03-30 09:21:00,33.8,26.6,29.79,West,270,0.0,0.0,75,0.00,,,0.00,WUHU21623XXSP,2013-03-30 13:21:00,
2013-03-30 09:22:00,34.3,26.8,29.78,West,270,0.0,0.0,74,0.00,,,0.00,WUHU21623XXSP,2013-03-30 13:22:00,
2013-03-30 09:25:00,34.3,26.8,29.79,West,270,0.0,0.0,74,0.00,,,0.00,WUHU21623XXSP,2013-03-30 13:25:00,
2013-03-30 09:27:00,34.9,27.0,29.78,West,270,0.0,0.0,73,0.00,,,0.00,WUHU21623XXSP,2013-03-30 13:27:00,
2013-03-30 09:30:00,35.4,27.2,29.78,West,270,0.0,0.0,72,0.00,,,0.00,WUHU21623XXSP,2013-03-30 13:30:00,
2013-03-30 09:31:00,35.4,27.2,29.78,West,270,0.0,0.0,72,0.00,,,0.00,WUHU21623XXSP,2013-03-30 13:31:00,
2013-03-30 09:32:00,35.4,27.2,29.78,West,270,0.0,0.0,72,0.00,,,0.00,WUHU21623XXSP,2013-03-30 13:32:00,
2013-03-30 09:35:00,36.1,27.6,29.78,West,270,0.0,0.0,71,0.00,,,0.00,WUHU21623XXSP,2013-03-30 13:35:00,
2013-03-30 09:36:00,36.1,27.6,29.78,West,270,0.0,0.0,71,0.00,,,0.00,WUHU21623XXSP,2013-03-30 13:36:00,
2013-03-30 09:37:00,36.5,28.0,29.78,West,270,0.0,0.0,71,0.00,,,0.00,WUHU21623XXSP,2013-03-30 13:37:00,
2013-03-30 09:41:00,36.7,27.9,29.78,West,270,0.0,0.0,70,0.00,,,0.00,WUHU21623XXSP,2013-03-30 13:41:00,
2013-03-30 09:42:00,37.0,28.2,29.77,West,270,0.0,0.0,70,0.00,,,0.00,WUHU21623XXSP,2013-03-30 13:42:00,
2013-03-30 09:43:00,37.0,28.2,29.77,West,270,0.0,0.0,70,0.00,,,0.00,WUHU21623XXSP,2013-03-30 13:43:00,
2013-03-30 09:46:00,37.6,28.4,29.77,West,270,0.0,0.0,69,0.00,,,0.00,WUHU21623XXSP,2013-03-30 13:46:00,
2013-03-30 09:47:00,37.6,28.4,29.77,West,270,0.0,0.0,69,0.00,,,0.00,WUHU21623XXSP,2013-03-30 13:47:00,
2013-03-30 09:48:00,37.9,28.7,29.77,West,270,0.0,0.0,69,0.00,,,0.00,WUHU21623XXSP,2013-03-30 13:48:00,
2013-03-30 09:51:00,38.1,28.9,29.77,West,270,0.0,0.0,69,0.00,,,0.00,WUHU21623XXSP,2013-03-30 13:51:00,
2013-03-30 09:52:00,38.5,29.2,29.77,West,270,0.0,0.0,69,0.00,,,0.00,WUHU21623XXSP,2013-03-30 13:52:00,
2013-03-30 09:53:00,38.5,29.2,29.77,West,270,0.0,0.0,69,0.00,,,0.00,WUHU21623XXSP,2013-03-30 13:53:00,
2013-03-30 09:56:00,39.0,28.9,29.77,West,270,0.0,0.0,67,0.00,,,0.00,WUHU21623XXSP,2013-03-30 13:56:00,
2013-03-30 09:57:00,39.0,28.9,29.77,West,270,0.0,0.0,67,0.00,,,0.00,WUHU21623XXSP,2013-03-30 13:57:00,
2013-03-30 09:58:00,39.0,28.9,29.77,West,270,0.0,0.0,67,0.00,,,0.00,WUHU21623XXSP,2013-03-30 13:58:00,
2013-03-30 10:01:00,39.6,29.4,29.77,West,270,0.0,0.0,67,0.00,,,0.00,WUHU21623XXSP,2013-03-30 14:01:00,
2013-03-30 10:02:00,39.6,29.4,29.77,West,270,0.0,0.0,67,0.00,,,0.00,WUHU21623XXSP,2013-03-30 14:02:00,
2013-03-30 10:03:00,39.7,29.6,29.77,West,270,0.0,0.0,67,0.00,,,0.00,WUHU21623XXSP,2013-03-30 14:03:00,
2013-03-30 10:07:00,40.3,29.4,29.77,West,270,0.0,0.0,65,0.00,,,0.00,WUHU21623XXSP,2013-03-30 14:07:00,
2013-03-30 10:08:00,40.3,29.4,29.77,West,270,0.0,0.0,65,0.00,,,0.00,WUHU21623XXSP,2013-03-30 14:08:00,
2013-03-30 10:12:00,40.8,29.9,29.77,West,270,0.0,0.0,65,0.00,,,0.00,WUHU21623XXSP,2013-03-30 14:12:00,
2013-03-30 10:13:00,40.8,29.9,29.77,West,270,0.0,0.0,65,0.00,,,0.00,WUHU21623XXSP,2013-03-30 14:13:00,
2013-03-30 10:17:00,41.2,29.9,29.76,West,270,0.0,0.0,64,0.00,,,0.00,WUHU21623XXSP,2013-03-30 14:17:00,
2013-03-30 10:18:00,41.4,29.9,29.76,West,270,0.0,0.0,62,0.00,,,0.00,WUHU21623XXSP,2013-03-30 14:18:00,
2013-03-30 10:22:00,41.7,29.6,29.76,West,270,0.0,0.0,62,0.00,,,0.00,WUHU21623XXSP,2013-03-30 14:22:00,
2013-03-30 10:23:00,41.7,29.6,29.76,West,270,0.0,0.0,62,0.00,,,0.00,WUHU21623XXSP,2013-03-30 14:23:00,
2013-03-30 10:27:00,42.1,29.2,29.76,West,270,0.0,0.0,60,0.00,,,0.00,WUHU21623XXSP,2013-03-30 14:27:00,
2013-03-30 10:28:00,42.1,29.2,29.76,West,270,0.0,0.0,60,0.00,,,0.00,WUHU21623XXSP,2013-03-30 14:28:00,
2013-03-30 10:32:00,42.8,29.0,29.76,SSW,202,0.0,0.0,58,0.00,,,0.00,WUHU21623XXSP,2013-03-30 14:32:00,
2013-03-30 10:33:00,42.8,29.0,29.76,SSW,202,0.0,0.0,58,0.00,,,0.00,WUHU21623XXSP,2013-03-30 14:33:00,
2013-03-30 10:37:00,43.2,28.9,29.76,WSW,247,0.0,0.0,57,0.00,,,0.00,WUHU21623XXSP,2013-03-30 14:37:00,
2013-03-30 10:38:00,43.2,28.9,29.76,WSW,247,0.0,0.0,57,0.00,,,0.00,WUHU21623XXSP,2013-03-30 14:38:00,
2013-03-30 10:42:00,43.5,27.9,29.76,SSW,202,0.0,0.0,54,0.00,,,0.00,WUHU21623XXSP,2013-03-30 14:42:00,
2013-03-30 10:43:00,43.7,27.6,29.75,West,270,0.0,0.0,53,0.00,,,0.00,WUHU21623XXSP,2013-03-30 14:43:00,
2013-03-30 10:44:00,43.7,27.6,29.75,West,270,0.0,0.0,53,0.00,,,0.00,WUHU21623XXSP,2013-03-30 14:44:00,
2013-03-30 10:47:00,44.2,27.7,29.76,South,180,0.0,0.0,52,0.00,,,0.00,WUHU21623XXSP,2013-03-30 14:47:00,
2013-03-30 10:48:00,44.2,27.7,29.76,South,180,0.0,0.0,52,0.00,,,0.00,WUHU21623XXSP,2013-03-30 14:48:00,
2013-03-30 10:49:00,44.2,27.7,29.76,South,180,0.0,0.0,52,0.00,,,0.00,WUHU21623XXSP,2013-03-30 14:49:00,
2013-03-30 10:53:00,44.4,27.9,29.76,WSW,247,0.0,0.0,52,0.00,,,0.00,WUHU21623XXSP,2013-03-30 14:53:00,
2013-03-30 10:54:00,44.8,28.2,29.75,WSW,247,0.0,0.0,52,0.00,,,0.00,WUHU21623XXSP,2013-03-30 14:54:00,
2013-03-30 10:58:00,45.1,28.1,29.75,WSW,247,0.0,0.0,51,0.00,,,0.00,WUHU21623XXSP,2013-03-30 14:58:00,
2013-03-30 10:59:00,45.1,28.1,29.75,WSW,247,0.0,0.0,51,0.00,,,0.00,WUHU21623XXSP,2013-03-30 14:59:00,
2013-03-30 11:03:00,45.7,28.1,29.75,South,180,0.0,0.0,50,0.00,,,0.00,WUHU21623XXSP,2013-03-30 15:03:00,
2013-03-30 11:04:00,45.7,28.1,29.75,South,180,0.0,0.0,50,0.00,,,0.00,WUHU21623XXSP,2013-03-30 15:04:00,
2013-03-30 11:08:00,46.0,27.9,29.75,South,180,0.0,0.0,49,0.00,,,0.00,WUHU21623XXSP,2013-03-30 15:08:00,
2013-03-30 11:09:00,46.2,28.1,29.75,WSW,247,0.0,0.0,49,0.00,,,0.00,WUHU21623XXSP,2013-03-30 15:09:00,
2013-03-30 11:10:00,46.2,28.1,29.75,WSW,247,0.0,0.0,49,0.00,,,0.00,WUHU21623XXSP,2013-03-30 15:10:00,
2013-03-30 11:13:00,46.4,27.1,29.76,SSE,157,0.0,0.0,47,0.00,,,0.00,WUHU21623XXSP,2013-03-30 15:13:00,
2013-03-30 11:14:00,46.4,27.1,29.76,SSE,157,0.0,0.0,47,0.00,,,0.00,WUHU21623XXSP,2013-03-30 15:14:00,
2013-03-30 11:15:00,46.4,27.1,29.76,SSE,157,0.0,0.0,47,0.00,,,0.00,WUHU21623XXSP,2013-03-30 15:15:00,
2013-03-30 11:19:00,46.6,27.3,29.75,South,180,0.0,0.0,47,0.00,,,0.00,WUHU21623XXSP,2013-03-30 15:19:00,
2013-03-30 11:20:00,46.8,26.9,29.75,WSW,247,0.0,0.0,46,0.00,,,0.00,WUHU21623XXSP,2013-03-30 15:20:00,
2013-03-30 11:24:00,47.1,26.7,29.75,West,270,0.0,0.0,45,0.00,,,0.00,WUHU21623XXSP,2013-03-30 15:24:00,
2013-03-30 11:25:00,47.1,26.7,29.75,West,270,0.0,0.0,45,0.00,,,0.00,WUHU21623XXSP,2013-03-30 15:25:00,
2013-03-30 11:29:00,47.1,26.7,29.75,SW,225,0.0,0.0,45,0.00,,,0.00,WUHU21623XXSP,2013-03-30 15:29:00,
2013-03-30 11:30:00,47.1,26.7,29.75,SW,225,0.0,0.0,45,0.00,,,0.00,WUHU21623XXSP,2013-03-30 15:30:00,
2013-03-30 11:34:00,47.3,26.3,29.75,South,180,0.0,0.0,44,0.00,,,0.00,WUHU21623XXSP,2013-03-30 15:34:00,
2013-03-30 11:35:00,47.5,26.5,29.75,South,180,0.0,0.0,44,0.00,,,0.00,WUHU21623XXSP,2013-03-30 15:35:00,
2013-03-30 11:39:00,47.8,26.8,29.75,South,180,0.0,0.0,44,0.00,,,0.00,WUHU21623XXSP,2013-03-30 15:39:00,
2013-03-30 11:40:00,47.8,26.8,29.75,South,180,0.0,0.0,44,0.00,,,0.00,WUHU21623XXSP,2013-03-30 15:40:00,
2013-03-30 11:45:00,48.0,27.0,29.75,SSW,202,0.0,0.0,44,0.00,,,0.00,WUHU21623XXSP,2013-03-30 15:45:00,
2013-03-30 11:50:00,48.6,26.9,29.75,South,180,0.0,0.0,43,0.00,,,0.00,WUHU21623XXSP,2013-03-30 15:50:00,
2013-03-30 11:51:00,48.6,26.9,29.75,South,180,0.0,0.0,43,0.00,,,0.00,WUHU21623XXSP,2013-03-30 15:51:00,
2013-03-30 11:55:00,48.7,26.0,29.75,South,180,0.0,0.0,41,0.00,,,0.00,WUHU21623XXSP,2013-03-30 15:55:00,
2013-03-30 11:56:00,48.7,26.0,29.75,South,180,0.0,0.0,41,0.00,,,0.00,WUHU21623XXSP,2013-03-30 15:56:00,
2013-03-30 12:00:00,49.3,27.1,29.74,SSW,202,0.0,0.0,42,0.00,,,0.00,WUHU21623XXSP,2013-03-30 16:00:00,
2013-03-30 12:01:00,49.3,27.1,29.74,SSW,202,0.0,0.0,42,0.00,,,0.00,WUHU21623XXSP,2013-03-30 16:01:00,
2013-03-30 12:02:00,49.3,27.1,29.74,SSW,202,0.0,0.0,42,0.00,,,0.00,WUHU21623XXSP,2013-03-30 16:02:00,
2013-03-30 12:05:00,49.6,27.4,29.74,South,180,0.0,0.0,42,0.00,,,0.00,WUHU21623XXSP,2013-03-30 16:05:00,
2013-03-30 12:06:00,49.6,27.4,29.74,South,180,0.0,0.0,42,0.00,,,0.00,WUHU21623XXSP,2013-03-30 16:06:00,
2013-03-30 12:07:00,49.6,27.4,29.74,SW,225,0.0,0.0,42,0.00,,,0.00,WUHU21623XXSP,2013-03-30 16:07:00,
2013-03-30 12:10:00,49.8,27.0,29.74,SW,225,0.0,0.0,41,0.00,,,0.00,WUHU21623XXSP,2013-03-30 16:10:00,
2013-03-30 12:11:00,49.8,27.0,29.74,SSW,202,0.0,0.0,41,0.00,,,0.00,WUHU21623XXSP,2013-03-30 16:11:00,
2013-03-30 12:12:00,49.8,27.0,29.74,SSW,202,0.0,0.0,41,0.00,,,0.00,WUHU21623XXSP,2013-03-30 16:12:00,
2013-03-30 12:15:00,50.2,27.3,29.74,SSW,202,0.0,0.0,41,0.00,,,0.00,WUHU21623XXSP,2013-03-30 16:15:00,
2013-03-30 12:16:00,50.2,27.3,29.74,SSW,202,0.0,0.0,41,0.00,,,0.00,WUHU21623XXSP,2013-03-30 16:16:00,
2013-03-30 12:17:00,50.2,27.3,29.74,SSW,202,0.0,0.0,41,0.00,,,0.00,WUHU21623XXSP,2013-03-30 16:17:00,
2013-03-30 12:20:00,50.4,26.9,29.74,SSW,202,0.0,0.0,40,0.00,,,0.00,WUHU21623XXSP,2013-03-30 16:20:00,
2013-03-30 12:22:00,50.5,26.4,29.74,SSW,202,0.0,0.0,39,0.00,,,0.00,WUHU21623XXSP,2013-03-30 16:22:00,
2013-03-30 12:23:00,50.5,26.4,29.74,SSW,202,0.0,0.0,39,0.00,,,0.00,WUHU21623XXSP,2013-03-30 16:23:00,
2013-03-30 12:26:00,50.9,27.4,29.74,South,180,0.0,0.0,40,0.00,,,0.00,WUHU21623XXSP,2013-03-30 16:26:00,
2013-03-30 12:27:00,50.9,27.4,29.74,South,180,0.0,0.0,40,0.00,,,0.00,WUHU21623XXSP,2013-03-30 16:27:00,
2013-03-30 12:28:00,50.9,27.4,29.74,South,180,0.0,0.0,40,0.00,,,0.00,WUHU21623XXSP,2013-03-30 16:28:00,
2013-03-30 12:31:00,51.4,27.9,29.74,SSW,202,0.0,0.0,40,0.00,,,0.00,WUHU21623XXSP,2013-03-30 16:31:00,
2013-03-30 12:32:00,51.6,27.4,29.74,SW,225,0.0,0.0,39,0.00,,,0.00,WUHU21623XXSP,2013-03-30 16:32:00,
2013-03-30 12:33:00,51.6,27.4,29.74,SW,225,0.0,0.0,39,0.00,,,0.00,WUHU21623XXSP,2013-03-30 16:33:00,
2013-03-30 12:37:00,52.2,27.9,29.74,South,180,0.0,0.0,39,0.00,,,0.00,WUHU21623XXSP,2013-03-30 16:37:00,
2013-03-30 12:38:00,52.2,27.9,29.74,South,180,0.0,0.0,39,0.00,,,0.00,WUHU21623XXSP,2013-03-30 16:38:00,
2013-03-30 12:42:00,52.5,28.2,29.73,SSW,202,0.0,0.0,39,0.00,,,0.00,WUHU21623XXSP,2013-03-30 16:42:00,
2013-03-30 12:43:00,52.7,28.2,29.73,SSW,202,0.0,0.0,38,0.00,,,0.00,WUHU21623XXSP,2013-03-30 16:43:00,
2013-03-30 12:47:00,52.9,27.1,29.73,West,270,0.0,0.0,37,0.00,,,0.00,WUHU21623XXSP,2013-03-30 16:47:00,
2013-03-30 12:48:00,52.9,27.1,29.73,West,270,0.0,0.0,37,0.00,,,0.00,WUHU21623XXSP,2013-03-30 16:48:00,
2013-03-30 12:53:00,53.2,27.5,29.74,SW,225,0.0,0.0,37,0.00,,,0.00,WUHU21623XXSP,2013-03-30 16:53:00,
2013-03-30 12:58:00,53.2,27.5,29.73,SW,225,0.0,0.0,37,0.00,,,0.00,WUHU21623XXSP,2013-03-30 16:58:00,
2013-03-30 12:59:00,53.4,27.5,29.73,SSW,202,0.0,0.0,37,0.00,,,0.00,WUHU21623XXSP,2013-03-30 16:59:00,
2013-03-30 13:03:00,53.4,26.3,29.72,South,180,0.0,0.0,35,0.00,,,0.00,WUHU21623XXSP,2013-03-30 17:03:00,
2013-03-30 13:04:00,53.4,26.3,29.72,South,180,0.0,0.0,35,0.00,,,0.00,WUHU21623XXSP,2013-03-30 17:04:00,
2013-03-30 13:08:00,53.8,26.6,29.72,South,180,0.0,0.0,35,0.00,,,0.00,WUHU21623XXSP,2013-03-30 17:08:00,
2013-03-30 13:09:00,53.8,26.6,29.72,South,180,0.0,0.0,35,0.00,,,0.00,WUHU21623XXSP,2013-03-30 17:09:00,
2013-03-30 13:13:00,54.0,26.7,29.72,South,180,0.0,0.0,35,0.00,,,0.00,WUHU21623XXSP,2013-03-30 17:13:00,
2013-03-30 13:14:00,54.0,26.7,29.72,South,180,0.0,0.0,35,0.00,,,0.00,WUHU21623XXSP,2013-03-30 17:14:00,
2013-03-30 13:18:00,54.0,26.0,29.72,WSW,247,0.0,0.0,34,0.00,,,0.00,WUHU21623XXSP,2013-03-30 17:18:00,
2013-03-30 13:19:00,54.1,26.2,29.71,SW,225,0.0,0.0,34,0.00,,,0.00,WUHU21623XXSP,2013-03-30 17:19:00,
2013-03-30 13:23:00,54.3,26.3,29.71,SW,225,0.0,0.0,34,0.00,,,0.00,WUHU21623XXSP,2013-03-30 17:23:00,
2013-03-30 13:24:00,54.5,26.5,29.72,SSW,202,0.0,0.0,34,0.00,,,0.00,WUHU21623XXSP,2013-03-30 17:24:00,
2013-03-30 13:25:00,54.5,26.5,29.72,SSW,202,0.0,0.0,34,0.00,,,0.00,WUHU21623XXSP,2013-03-30 17:25:00,
2013-03-30 13:28:00,54.9,26.1,29.71,SW,225,0.0,0.0,33,0.00,,,0.00,WUHU21623XXSP,2013-03-30 17:28:00,
2013-03-30 13:29:00,54.9,26.1,29.71,SW,225,0.0,0.0,33,0.00,,,0.00,WUHU21623XXSP,2013-03-30 17:29:00,
2013-03-30 13:30:00,54.9,26.1,29.71,South,180,0.0,0.0,33,0.00,,,0.00,WUHU21623XXSP,2013-03-30 17:30:00,
2013-03-30 13:33:00,54.9,26.1,29.71,SSW,202,0.0,0.0,33,0.00,,,0.00,WUHU21623XXSP,2013-03-30 17:33:00,
2013-03-30 13:34:00,55.0,26.2,29.71,West,270,0.0,0.0,33,0.00,,,0.00,WUHU21623XXSP,2013-03-30 17:34:00,
2013-03-30 13:35:00,55.0,26.2,29.71,West,270,0.0,0.0,33,0.00,,,0.00,WUHU21623XXSP,2013-03-30 17:35:00,
2013-03-30 13:38:00,55.2,25.7,29.70,SW,225,0.0,0.0,32,0.00,,,0.00,WUHU21623XXSP,2013-03-30 17:38:00,
2013-03-30 13:40:00,55.2,25.7,29.70,SW,225,0.0,0.0,32,0.00,,,0.00,WUHU21623XXSP,2013-03-30 17:40:00,
2013-03-30 13:44:00,55.4,25.8,29.71,SW,225,0.0,0.0,32,0.00,,,0.00,WUHU21623XXSP,2013-03-30 17:44:00,
2013-03-30 13:45:00,55.4,25.8,29.71,SW,225,0.0,0.0,32,0.00,,,0.00,WUHU21623XXSP,2013-03-30 17:45:00,
2013-03-30 13:49:00,55.4,25.8,29.70,SSW,202,0.0,0.0,32,0.00,,,0.00,WUHU21623XXSP,2013-03-30 17:49:00,
2013-03-30 13:50:00,55.6,26.7,29.70,SW,225,0.0,0.0,33,0.00,,,0.00,WUHU21623XXSP,2013-03-30 17:50:00,
2013-03-30 13:54:00,55.8,26.9,29.70,SW,225,0.0,0.0,33,0.00,,,0.00,WUHU21623XXSP,2013-03-30 17:54:00,
2013-03-30 13:55:00,55.8,26.9,29.70,SW,225,0.0,0.0,33,0.00,,,0.00,WUHU21623XXSP,2013-03-30 17:55:00,
2013-03-30 13:59:00,55.9,27.0,29.70,SW,225,0.0,0.0,33,0.00,,,0.00,WUHU21623XXSP,2013-03-30 17:59:00,
2013-03-30 14:00:00,56.1,27.2,29.70,South,180,0.0,0.0,33,0.00,,,0.00,WUHU21623XXSP,2013-03-30 18:00:00,
2013-03-30 14:01:00,56.1,27.2,29.70,South,180,0.0,0.0,33,0.00,,,0.00,WUHU21623XXSP,2013-03-30 18:01:00,
2013-03-30 14:05:00,56.3,27.4,29.70,West,270,0.0,0.0,33,0.00,,,0.00,WUHU21623XXSP,2013-03-30 18:05:00,
2013-03-30 14:06:00,56.3,27.4,29.70,West,270,0.0,0.0,33,0.00,,,0.00,WUHU21623XXSP,2013-03-30 18:06:00,
2013-03-30 14:10:00,56.5,27.5,29.69,WSW,247,0.0,0.0,33,0.00,,,0.00,WUHU21623XXSP,2013-03-30 18:10:00,
2013-03-30 14:11:00,56.5,27.5,29.69,SSW,202,0.0,0.0,33,0.00,,,0.00,WUHU21623XXSP,2013-03-30 18:11:00,
2013-03-30 14:15:00,56.8,27.8,29.69,SW,225,0.0,0.0,33,0.00,,,0.00,WUHU21623XXSP,2013-03-30 18:15:00,
2013-03-30 14:16:00,56.8,27.8,29.69,SW,225,0.0,0.0,33,0.00,,,0.00,WUHU21623XXSP,2013-03-30 18:16:00,
2013-03-30 14:17:00,57.0,28.7,29.69,SW,225,0.0,0.0,34,0.00,,,0.00,WUHU21623XXSP,2013-03-30 18:17:00,
2013-03-30 14:20:00,57.2,28.9,29.69,SW,225,0.0,0.0,34,0.00,,,0.00,WUHU21623XXSP,2013-03-30 18:20:00,
2013-03-30 14:21:00,57.2,28.9,29.69,SW,225,0.0,0.0,34,0.00,,,0.00,WUHU21623XXSP,2013-03-30 18:21:00,
2013-03-30 14:22:00,57.4,29.0,29.69,South,180,0.0,0.0,34,0.00,,,0.00,WUHU21623XXSP,2013-03-30 18:22:00,
2013-03-30 14:25:00,57.6,29.2,29.69,WSW,247,0.0,0.0,34,0.00,,,0.00,WUHU21623XXSP,2013-03-30 18:25:00,
2013-03-30 14:26:00,57.7,28.7,29.69,SW,225,0.0,0.0,33,0.00,,,0.00,WUHU21623XXSP,2013-03-30 18:26:00,
2013-03-30 14:27:00,57.7,28.7,29.69,SW,225,0.0,0.0,33,0.00,,,0.00,WUHU21623XXSP,2013-03-30 18:27:00,
2013-03-30 14:30:00,57.9,28.1,29.69,WSW,247,0.0,0.0,32,0.00,,,0.00,WUHU21623XXSP,2013-03-30 18:30:00,
2013-03-30 14:31:00,57.9,28.1,29.69,WSW,247,0.0,0.0,32,0.00,,,0.00,WUHU21623XXSP,2013-03-30 18:31:00,
2013-03-30 14:32:00,58.1,29.0,29.69,WSW,247,0.0,0.0,33,0.00,,,0.00,WUHU21623XXSP,2013-03-30 18:32:00,
2013-03-30 14:33:00,58.1,29.0,29.69,WSW,247,0.0,0.0,33,0.00,,,0.00,WUHU21623XXSP,2013-03-30 18:33:00,
2013-03-30 14:36:00,58.3,29.1,29.69,West,270,0.0,0.0,33,0.00,,,0.00,WUHU21623XXSP,2013-03-30 18:36:00,
2013-03-30 14:37:00,58.5,28.6,29.69,SSW,202,0.0,0.0,32,0.00,,,0.00,WUHU21623XXSP,2013-03-30 18:37:00,
2013-03-30 14:38:00,58.5,28.6,29.69,SSW,202,0.0,0.0,32,0.00,,,0.00,WUHU21623XXSP,2013-03-30 18:38:00,
2013-03-30 14:41:00,58.8,29.6,29.68,SW,225,0.0,0.0,33,0.00,,,0.00,WUHU21623XXSP,2013-03-30 18:41:00,
2013-03-30 14:42:00,58.8,29.6,29.68,SW,225,0.0,0.0,33,0.00,,,0.00,WUHU21623XXSP,2013-03-30 18:42:00,
2013-03-30 14:43:00,58.8,29.6,29.68,SW,225,0.0,0.0,33,0.00,,,0.00,WUHU21623XXSP,2013-03-30 18:43:00,
2013-03-30 14:46:00,58.8,29.6,29.68,WSW,247,0.0,0.0,33,0.00,,,0.00,WUHU21623XXSP,2013-03-30 18:46:00,
2013-03-30 14:47:00,58.8,29.6,29.68,WSW,247,0.0,0.0,33,0.00,,,0.00,WUHU21623XXSP,2013-03-30 18:47:00,
2013-03-30 14:48:00,58.8,29.6,29.68,SSW,202,0.0,0.0,33,0.00,,,0.00,WUHU21623XXSP,2013-03-30 18:48:00,
2013-03-30 14:51:00,59.0,29.8,29.67,SSW,202,0.0,0.0,33,0.00,,,0.00,WUHU21623XXSP,2013-03-30 18:51:00,
2013-03-30 14:52:00,59.2,29.9,29.68,SW,225,0.0,0.0,33,0.00,,,0.00,WUHU21623XXSP,2013-03-30 18:52:00,
2013-03-30 14:53:00,59.5,29.5,29.67,WSW,247,0.0,0.0,32,0.00,,,0.00,WUHU21623XXSP,2013-03-30 18:53:00,
2013-03-30 14:56:00,59.5,28.8,29.67,South,180,0.0,0.0,31,0.00,,,0.00,WUHU21623XXSP,2013-03-30 18:56:00,
2013-03-30 14:57:00,59.5,28.8,29.67,South,180,0.0,0.0,31,0.00,,,0.00,WUHU21623XXSP,2013-03-30 18:57:00,
2013-03-30 14:58:00,59.5,29.5,29.67,SSW,202,0.0,0.0,32,0.00,,,0.00,WUHU21623XXSP,2013-03-30 18:58:00,
2013-03-30 15:02:00,59.5,29.5,29.67,South,180,0.0,0.0,32,0.00,,,0.00,WUHU21623XXSP,2013-03-30 19:02:00,
2013-03-30 15:03:00,59.7,29.7,29.67,WSW,247,0.0,0.0,32,0.00,,,0.00,WUHU21623XXSP,2013-03-30 19:03:00,
2013-03-30 15:07:00,59.9,29.1,29.67,SSW,202,0.0,0.0,31,0.00,,,0.00,WUHU21623XXSP,2013-03-30 19:07:00,
2013-03-30 15:08:00,59.9,29.1,29.67,SSW,202,0.0,0.0,31,0.00,,,0.00,WUHU21623XXSP,2013-03-30 19:08:00,
2013-03-30 15:12:00,60.4,29.5,29.67,SSE,157,0.0,0.0,31,0.00,,,0.00,WUHU21623XXSP,2013-03-30 19:12:00,
2013-03-30 15:13:00,60.4,29.5,29.67,SSE,157,0.0,0.0,31,0.00,,,0.00,WUHU21623XXSP,2013-03-30 19:13:00,
2013-03-30 15:14:00,60.4,29.5,29.67,SSE,157,0.0,0.0,31,0.00,,,0.00,WUHU21623XXSP,2013-03-30 19:14:00,
2013-03-30 15:17:00,60.4,29.5,29.67,SSW,202,0.0,0.0,31,0.00,,,0.00,WUHU21623XXSP,2013-03-30 19:17:00,
2013-03-30 15:18:00,60.4,29.5,29.67,SSW,202,0.0,0.0,31,0.00,,,0.00,WUHU21623XXSP,2013-03-30 19:18:00,
2013-03-30 15:19:00,60.4,29.5,29.67,SSW,202,0.0,0.0,31,0.00,,,0.00,WUHU21623XXSP,2013-03-30 19:19:00,
2013-03-30 15:22:00,60.6,29.7,29.66,WSW,247,0.0,0.0,31,0.00,,,0.00,WUHU21623XXSP,2013-03-30 19:22:00,
2013-03-30 15:23:00,60.6,29.7,29.66,WSW,247,0.0,0.0,31,0.00,,,0.00,WUHU21623XXSP,2013-03-30 19:23:00,
2013-03-30 15:24:00,60.6,29.7,29.66,SW,225,0.0,0.0,31,0.00,,,0.00,WUHU21623XXSP,2013-03-30 19:24:00,
2013-03-30 15:28:00,61.0,30.7,29.66,SSW,202,0.0,0.0,32,0.00,,,0.00,WUHU21623XXSP,2013-03-30 19:28:00,
2013-03-30 15:29:00,61.0,30.7,29.66,SSW,202,0.0,0.0,32,0.00,,,0.00,WUHU21623XXSP,2013-03-30 19:29:00,
2013-03-30 15:33:00,61.0,29.3,29.66,SW,225,0.0,0.0,30,0.00,,,0.00,WUHU21623XXSP,2013-03-30 19:33:00,
2013-03-30 15:34:00,61.0,29.3,29.66,SW,225,0.0,0.0,30,0.00,,,0.00,WUHU21623XXSP,2013-03-30 19:34:00,
2013-03-30 15:38:00,61.0,29.3,29.66,WSW,247,0.0,0.0,30,0.00,,,0.00,WUHU21623XXSP,2013-03-30 19:38:00,
2013-03-30 15:39:00,61.0,29.3,29.65,WSW,247,0.0,0.0,30,0.00,,,0.00,WUHU21623XXSP,2013-03-30 19:39:00,
2013-03-30 15:43:00,61.2,30.9,29.65,South,180,0.0,0.0,32,0.00,,,0.00,WUHU21623XXSP,2013-03-30 19:43:00,
2013-03-30 15:44:00,61.2,30.9,29.65,South,180,0.0,0.0,32,0.00,,,0.00,WUHU21623XXSP,2013-03-30 19:44:00,
2013-03-30 15:45:00,61.3,31.0,29.65,SW,225,0.0,0.0,32,0.00,,,0.00,WUHU21623XXSP,2013-03-30 19:45:00,
2013-03-30 15:48:00,61.5,30.5,29.65,SSW,202,0.0,0.0,31,0.00,,,0.00,WUHU21623XXSP,2013-03-30 19:48:00,
2013-03-30 15:49:00,61.5,30.5,29.65,SSW,202,0.0,0.0,31,0.00,,,0.00,WUHU21623XXSP,2013-03-30 19:49:00,
2013-03-30 15:50:00,61.7,30.6,29.65,WSW,247,0.0,0.0,31,0.00,,,0.00,WUHU21623XXSP,2013-03-30 19:50:00,
2013-03-30 15:53:00,61.9,31.5,29.64,SSW,202,0.0,0.0,32,0.00,,,0.00,WUHU21623XXSP,2013-03-30 19:53:00,
2013-03-30 15:54:00,61.9,31.5,29.64,SSW,202,0.0,0.0,32,0.00,,,0.00,WUHU21623XXSP,2013-03-30 19:54:00,
2013-03-30 15:55:00,61.9,31.5,29.64,SSW,202,0.0,0.0,32,0.00,,,0.00,WUHU21623XXSP,2013-03-30 19:55:00,
2013-03-30 15:58:00,62.2,31.9,29.64,WSW,247,0.0,0.0,32,0.00,,,0.00,WUHU21623XXSP,2013-03-30 19:58:00,
2013-03-30 15:59:00,62.2,31.9,29.64,WSW,247,0.0,0.0,32,0.00,,,0.00,WUHU21623XXSP,2013-03-30 19:59:00,
2013-03-30 16:01:00,62.2,31.9,29.64,WSW,247,0.0,0.0,32,0.00,,,0.00,WUHU21623XXSP,2013-03-30 20:01:00,
2013-03-30 16:03:00,62.4,31.3,29.64,SSW,202,0.0,0.0,31,0.00,,,0.00,WUHU21623XXSP,2013-03-30 20:03:00,
2013-03-30 16:04:00,62.4,31.3,29.64,SSW,202,0.0,0.0,31,0.00,,,0.00,WUHU21623XXSP,2013-03-30 20:04:00,
2013-03-30 16:05:00,62.4,31.3,29.64,SW,225,0.0,0.0,31,0.00,,,0.00,WUHU21623XXSP,2013-03-30 20:05:00,
2013-03-30 16:06:00,62.4,31.3,29.64,SW,225,0.0,0.0,31,0.00,,,0.00,WUHU21623XXSP,2013-03-30 20:06:00,
2013-03-30 16:09:00,62.4,30.6,29.63,SW,225,0.0,0.0,31,0.00,,,0.00,WUHU21623XXSP,2013-03-30 20:09:00,
2013-03-30 16:10:00,62.4,30.6,29.63,SW,225,0.0,0.0,31,0.00,,,0.00,WUHU21623XXSP,2013-03-30 20:10:00,
2013-03-30 16:11:00,62.4,30.6,29.63,South,180,0.0,0.0,30,0.00,,,0.00,WUHU21623XXSP,2013-03-30 20:11:00,
2013-03-30 16:14:00,62.4,31.3,29.63,South,180,0.0,0.0,31,0.00,,,0.00,WUHU21623XXSP,2013-03-30 20:14:00,
2013-03-30 16:15:00,62.2,31.9,29.63,SW,225,0.0,0.0,32,0.00,,,0.00,WUHU21623XXSP,2013-03-30 20:15:00,
2013-03-30 16:16:00,62.2,31.9,29.63,SW,225,0.0,0.0,32,0.00,,,0.00,WUHU21623XXSP,2013-03-30 20:16:00,
2013-03-30 16:19:00,62.2,31.1,29.62,SW,225,0.0,0.0,31,0.00,,,0.00,WUHU21623XXSP,2013-03-30 20:19:00,
2013-03-30 16:20:00,62.1,30.3,29.62,SSW,202,0.0,0.0,30,0.00,,,0.00,WUHU21623XXSP,2013-03-30 20:20:00,
2013-03-30 16:22:00,61.9,30.1,29.63,SSW,202,0.0,0.0,30,0.00,,,0.00,WUHU21623XXSP,2013-03-30 20:22:00,
2013-03-30 16:24:00,61.7,29.9,29.62,SW,225,0.0,0.0,30,0.00,,,0.00,WUHU21623XXSP,2013-03-30 20:24:00,
2013-03-30 16:25:00,61.7,30.6,29.62,SSW,202,0.0,0.0,31,0.00,,,0.00,WUHU21623XXSP,2013-03-30 20:25:00,
2013-03-30 16:27:00,61.7,30.6,29.62,SSW,202,0.0,0.0,31,0.00,,,0.00,WUHU21623XXSP,2013-03-30 20:27:00,
2013-03-30 16:29:00,61.5,30.5,29.62,WSW,247,0.0,0.0,31,0.00,,,0.00,WUHU21623XXSP,2013-03-30 20:29:00,
2013-03-30 16:30:00,61.5,31.2,29.62,South,180,0.0,0.0,32,0.00,,,0.00,WUHU21623XXSP,2013-03-30 20:30:00,
2013-03-30 16:32:00,61.5,31.2,29.62,South,180,0.0,0.0,32,0.00,,,0.00,WUHU21623XXSP,2013-03-30 20:32:00,
2013-03-30 16:34:00,61.3,30.3,29.62,South,180,0.0,0.0,31,0.00,,,0.00,WUHU21623XXSP,2013-03-30 20:34:00,
2013-03-30 16:36:00,61.3,30.3,29.62,South,180,0.0,0.0,31,0.00,,,0.00,WUHU21623XXSP,2013-03-30 20:36:00,
2013-03-30 16:37:00,61.2,30.9,29.62,South,180,0.0,0.0,32,0.00,,,0.00,WUHU21623XXSP,2013-03-30 20:37:00,
2013-03-30 16:39:00,61.0,30.7,29.62,South,180,0.0,0.0,32,0.00,,,0.00,WUHU21623XXSP,2013-03-30 20:39:00,
2013-03-30 16:41:00,61.0,30.7,29.62,SW,225,0.0,0.0,32,0.00,,,0.00,WUHU21623XXSP,2013-03-30 20:41:00,
2013-03-30 16:42:00,61.0,30.7,29.62,SW,225,0.0,0.0,32,0.00,,,0.00,WUHU21623XXSP,2013-03-30 20:42:00,
2013-03-30 16:44:00,61.0,30.7,29.62,WSW,247,0.0,0.0,32,0.00,,,0.00,WUHU21623XXSP,2013-03-30 20:44:00,
2013-03-30 16:46:00,60.8,30.6,29.62,SW,225,0.0,0.0,32,0.00,,,0.00,WUHU21623XXSP,2013-03-30 20:46:00,
2013-03-30 16:47:00,60.8,30.6,29.62,SW,225,0.0,0.0,32,0.00,,,0.00,WUHU21623XXSP,2013-03-30 20:47:00,
2013-03-30 16:49:00,60.6,30.4,29.61,SSW,202,0.0,0.0,32,0.00,,,0.00,WUHU21623XXSP,2013-03-30 20:49:00,
2013-03-30 16:50:00,60.6,30.4,29.61,SSW,202,0.0,0.0,32,0.00,,,0.00,WUHU21623XXSP,2013-03-30 20:50:00,
2013-03-30 16:52:00,60.6,29.7,29.61,SW,225,0.0,0.0,31,0.00,,,0.00,WUHU21623XXSP,2013-03-30 20:52:00,
2013-03-30 16:53:00,60.6,29.7,29.61,SW,225,0.0,0.0,31,0.00,,,0.00,WUHU21623XXSP,2013-03-30 20:53:00,
2013-03-30 16:55:00,60.6,29.7,29.62,SSW,202,0.0,0.0,31,0.00,,,0.00,WUHU21623XXSP,2013-03-30 20:55:00,
2013-03-30 16:57:00,60.1,29.2,29.62,South,180,0.0,0.0,31,0.00,,,0.00,WUHU21623XXSP,2013-03-30 20:57:00,
2013-03-30 16:58:00,60.1,29.2,29.62,South,180,0.0,0.0,31,0.00,,,0.00,WUHU21623XXSP,2013-03-30 20:58:00,
2013-03-30 17:00:00,60.1,29.2,29.62,South,180,0.0,0.0,31,0.00,,,0.00,WUHU21623XXSP,2013-03-30 21:00:00,
2013-03-30 17:02:00,60.1,29.2,29.62,SSE,157,0.0,0.0,31,0.00,,,0.00,WUHU21623XXSP,2013-03-30 21:02:00,
2013-03-30 17:03:00,60.1,29.2,29.62,SSE,157,0.0,0.0,31,0.00,,,0.00,WUHU21623XXSP,2013-03-30 21:03:00,
2013-03-30 17:05:00,60.1,30.0,29.61,SSW,202,0.0,0.0,32,0.00,,,0.00,WUHU21623XXSP,2013-03-30 21:05:00,
2013-03-30 17:08:00,60.1,30.0,29.61,SW,225,0.0,0.0,32,0.00,,,0.00,WUHU21623XXSP,2013-03-30 21:08:00,
2013-03-30 17:10:00,60.1,29.2,29.61,WSW,247,0.0,0.0,31,0.00,,,0.00,WUHU21623XXSP,2013-03-30 21:10:00,
2013-03-30 17:13:00,60.1,30.7,29.61,SSW,202,0.0,0.0,33,0.00,,,0.00,WUHU21623XXSP,2013-03-30 21:13:00,
2013-03-30 17:14:00,60.1,30.7,29.61,SSW,202,0.0,0.0,33,0.00,,,0.00,WUHU21623XXSP,2013-03-30 21:14:00,
2013-03-30 17:15:00,59.9,30.5,29.61,South,180,0.0,0.0,33,0.00,,,0.00,WUHU21623XXSP,2013-03-30 21:15:00,
2013-03-30 17:18:00,59.7,30.4,29.61,SW,225,0.0,0.0,33,0.00,,,0.00,WUHU21623XXSP,2013-03-30 21:18:00,
2013-03-30 17:19:00,59.7,30.4,29.61,SW,225,0.0,0.0,33,0.00,,,0.00,WUHU21623XXSP,2013-03-30 21:19:00,
2013-03-30 17:20:00,59.7,30.4,29.61,South,180,0.0,0.0,33,0.00,,,0.00,WUHU21623XXSP,2013-03-30 21:20:00,
2013-03-30 17:23:00,59.5,30.2,29.61,South,180,0.0,0.0,33,0.00,,,0.00,WUHU21623XXSP,2013-03-30 21:23:00,
2013-03-30 17:24:00,59.5,30.2,29.61,South,180,0.0,0.0,33,0.00,,,0.00,WUHU21623XXSP,2013-03-30 21:24:00,
2013-03-30 17:25:00,59.2,29.9,29.61,SSW,202,0.0,0.0,33,0.00,,,0.00,WUHU21623XXSP,2013-03-30 21:25:00,
2013-03-30 17:28:00,58.8,29.6,29.60,South,180,0.0,0.0,33,0.00,,,0.00,WUHU21623XXSP,2013-03-30 21:28:00,
2013-03-30 17:29:00,58.8,29.6,29.60,South,180,0.0,0.0,33,0.00,,,0.00,WUHU21623XXSP,2013-03-30 21:29:00,
2013-03-30 17:30:00,58.8,29.6,29.60,South,180,0.0,0.0,33,0.00,,,0.00,WUHU21623XXSP,2013-03-30 21:30:00,
2013-03-30 17:33:00,58.8,29.6,29.60,SSW,202,0.0,0.0,33,0.00,,,0.00,WUHU21623XXSP,2013-03-30 21:33:00,
2013-03-30 17:34:00,58.5,29.3,29.60,SSW,202,0.0,0.0,33,0.00,,,0.00,WUHU21623XXSP,2013-03-30 21:34:00,
2013-03-30 17:35:00,58.5,29.3,29.60,SSW,202,0.0,0.0,33,0.00,,,0.00,WUHU21623XXSP,2013-03-30 21:35:00,
2013-03-30 17:36:00,58.5,29.3,29.60,SSW,202,0.0,0.0,33,0.00,,,0.00,WUHU21623XXSP,2013-03-30 21:36:00,
2013-03-30 17:39:00,57.9,29.5,29.60,SW,225,0.0,0.0,34,0.00,,,0.00,WUHU21623XXSP,2013-03-30 21:39:00,
2013-03-30 17:40:00,57.9,29.5,29.60,SW,225,0.0,0.0,34,0.00,,,0.00,WUHU21623XXSP,2013-03-30 21:40:00,
2013-03-30 17:41:00,57.9,29.5,29.60,SW,225,0.0,0.0,34,0.00,,,0.00,WUHU21623XXSP,2013-03-30 21:41:00,
2013-03-30 17:44:00,57.7,29.4,29.60,South,180,0.0,0.0,34,0.00,,,0.00,WUHU21623XXSP,2013-03-30 21:44:00,
2013-03-30 17:45:00,57.7,29.4,29.60,South,180,0.0,0.0,34,0.00,,,0.00,WUHU21623XXSP,2013-03-30 21:45:00,
2013-03-30 17:46:00,57.7,29.4,29.60,South,180,0.0,0.0,34,0.00,,,0.00,WUHU21623XXSP,2013-03-30 21:46:00,
2013-03-30 17:49:00,57.4,29.0,29.60,South,180,0.0,0.0,34,0.00,,,0.00,WUHU21623XXSP,2013-03-30 21:49:00,
2013-03-30 17:50:00,57.4,29.0,29.60,South,180,0.0,0.0,34,0.00,,,0.00,WUHU21623XXSP,2013-03-30 21:50:00,
2013-03-30 17:51:00,57.4,29.0,29.60,South,180,0.0,0.0,34,0.00,,,0.00,WUHU21623XXSP,2013-03-30 21:51:00,
2013-03-30 17:54:00,57.0,28.7,29.60,South,180,0.0,0.0,34,0.00,,,0.00,WUHU21623XXSP,2013-03-30 21:54:00,
2013-03-30 17:55:00,57.0,28.7,29.60,South,180,0.0,0.0,34,0.00,,,0.00,WUHU21623XXSP,2013-03-30 21:55:00,
2013-03-30 17:56:00,57.0,29.4,29.59,SSW,202,0.0,0.0,35,0.00,,,0.00,WUHU21623XXSP,2013-03-30 21:56:00,
2013-03-30 17:59:00,56.8,29.2,29.59,SW,225,0.0,0.0,35,0.00,,,0.00,WUHU21623XXSP,2013-03-30 21:59:00,
2013-03-30 18:00:00,56.8,29.2,29.59,SW,225,0.0,0.0,35,0.00,,,0.00,WUHU21623XXSP,2013-03-30 22:00:00,
2013-03-30 18:01:00,56.8,29.2,29.59,SW,225,0.0,0.0,35,0.00,,,0.00,WUHU21623XXSP,2013-03-30 22:01:00,
2013-03-30 18:02:00,56.8,29.2,29.59,SW,225,0.0,0.0,35,0.00,,,0.00,WUHU21623XXSP,2013-03-30 22:02:00,
2013-03-30 18:04:00,56.8,29.2,29.59,SSW,202,0.0,0.0,35,0.00,,,0.00,WUHU21623XXSP,2013-03-30 22:04:00,
2013-03-30 18:05:00,56.8,29.2,29.59,SSW,202,0.0,0.0,35,0.00,,,0.00,WUHU21623XXSP,2013-03-30 22:05:00,
2013-03-30 18:06:00,56.8,29.2,29.59,SSW,202,0.0,0.0,35,0.00,,,0.00,WUHU21623XXSP,2013-03-30 22:06:00,
2013-03-30 18:07:00,56.7,29.1,29.59,SW,225,0.0,0.0,35,0.00,,,0.00,WUHU21623XXSP,2013-03-30 22:07:00,
2013-03-30 18:10:00,56.7,29.1,29.59,SW,225,0.0,0.0,35,0.00,,,0.00,WUHU21623XXSP,2013-03-30 22:10:00,
2013-03-30 18:11:00,56.5,29.1,29.59,SW,225,0.0,0.0,35,0.00,,,0.00,WUHU21623XXSP,2013-03-30 22:11:00,
2013-03-30 18:12:00,56.5,29.1,29.59,SW,225,0.0,0.0,35,0.00,,,0.00,WUHU21623XXSP,2013-03-30 22:12:00,
2013-03-30 18:15:00,56.3,28.9,29.59,South,180,0.0,0.0,36,0.00,,,0.00,WUHU21623XXSP,2013-03-30 22:15:00,
2013-03-30 18:16:00,56.3,28.9,29.59,South,180,0.0,0.0,36,0.00,,,0.00,WUHU21623XXSP,2013-03-30 22:16:00,
2013-03-30 18:17:00,56.1,29.5,29.59,South,180,0.0,0.0,36,0.00,,,0.00,WUHU21623XXSP,2013-03-30 22:17:00,
2013-03-30 18:20:00,56.1,29.3,29.59,South,180,0.0,0.0,36,0.00,,,0.00,WUHU21623XXSP,2013-03-30 22:20:00,
2013-03-30 18:21:00,56.1,29.3,29.59,South,180,0.0,0.0,36,0.00,,,0.00,WUHU21623XXSP,2013-03-30 22:21:00,
2013-03-30 18:22:00,56.1,29.3,29.59,SW,225,0.0,0.0,36,0.00,,,0.00,WUHU21623XXSP,2013-03-30 22:22:00,
2013-03-30 18:23:00,55.9,29.3,29.59,SW,225,0.0,0.0,36,0.00,,,0.00,WUHU21623XXSP,2013-03-30 22:23:00,
2013-03-30 18:25:00,55.9,29.3,29.59,SW,225,0.0,0.0,36,0.00,,,0.00,WUHU21623XXSP,2013-03-30 22:25:00,
2013-03-30 18:26:00,55.9,29.1,29.59,South,180,0.0,0.0,36,0.00,,,0.00,WUHU21623XXSP,2013-03-30 22:26:00,
2013-03-30 18:28:00,55.9,29.1,29.59,SSW,202,0.0,0.0,36,0.00,,,0.00,WUHU21623XXSP,2013-03-30 22:28:00,
2013-03-30 18:30:00,55.9,29.8,29.59,SW,225,0.0,0.0,37,0.00,,,0.00,WUHU21623XXSP,2013-03-30 22:30:00,
2013-03-30 18:31:00,55.9,29.8,29.59,SW,225,0.0,0.0,37,0.00,,,0.00,WUHU21623XXSP,2013-03-30 22:31:00,
2013-03-30 18:33:00,55.6,29.8,29.59,SW,225,0.0,0.0,37,0.00,,,0.00,WUHU21623XXSP,2013-03-30 22:33:00,
2013-03-30 18:35:00,55.6,29.5,29.59,SW,225,0.0,0.0,37,0.00,,,0.00,WUHU21623XXSP,2013-03-30 22:35:00,
2013-03-30 18:36:00,55.4,29.4,29.59,SW,225,0.0,0.0,37,0.00,,,0.00,WUHU21623XXSP,2013-03-30 22:36:00,
2013-03-30 18:38:00,55.4,29.4,29.59,SW,225,0.0,0.0,37,0.00,,,0.00,WUHU21623XXSP,2013-03-30 22:38:00,
2013-03-30 18:40:00,55.2,29.2,29.59,SW,225,0.0,0.0,37,0.00,,,0.00,WUHU21623XXSP,2013-03-30 22:40:00,
2013-03-30 18:42:00,55.0,29.2,29.59,SW,225,0.0,0.0,37,0.00,,,0.00,WUHU21623XXSP,2013-03-30 22:42:00,
2013-03-30 18:43:00,55.0,29.2,29.59,SW,225,0.0,0.0,37,0.00,,,0.00,WUHU21623XXSP,2013-03-30 22:43:00,
2013-03-30 18:45:00,54.9,29.0,29.59,SW,225,0.0,0.0,38,0.00,,,0.00,WUHU21623XXSP,2013-03-30 22:45:00,
2013-03-30 18:47:00,54.7,29.4,29.59,SSW,202,0.0,0.0,38,0.00,,,0.00,WUHU21623XXSP,2013-03-30 22:47:00,
2013-03-30 18:48:00,54.7,29.4,29.59,SSW,202,0.0,0.0,38,0.00,,,0.00,WUHU21623XXSP,2013-03-30 22:48:00,
2013-03-30 18:51:00,54.3,29.3,29.59,SSW,202,0.0,0.0,38,0.00,,,0.00,WUHU21623XXSP,2013-03-30 22:51:00,
2013-03-30 18:53:00,54.3,29.3,29.59,SSW,202,0.0,0.0,38,0.00,,,0.00,WUHU21623XXSP,2013-03-30 22:53:00,
2013-03-30 18:54:00,54.1,28.9,29.59,SSW,202,0.0,0.0,38,0.00,,,0.00,WUHU21623XXSP,2013-03-30 22:54:00,
2013-03-30 18:56:00,54.0,28.9,29.59,SSW,202,0.0,0.0,38,0.00,,,0.00,WUHU21623XXSP,2013-03-30 22:56:00,
2013-03-30 18:58:00,54.0,28.9,29.59,SSW,202,0.0,0.0,38,0.00,,,0.00,WUHU21623XXSP,2013-03-30 22:58:00,
2013-03-30 18:59:00,53.8,29.3,29.59,South,180,0.0,0.0,39,0.00,,,0.00,WUHU21623XXSP,2013-03-30 22:59:00,
2013-03-30 19:02:00,53.4,29.0,29.58,SSW,202,0.0,0.0,39,0.00,,,0.00,WUHU21623XXSP,2013-03-30 23:02:00,
2013-03-30 19:03:00,53.4,29.0,29.58,SSW,202,0.0,0.0,39,0.00,,,0.00,WUHU21623XXSP,2013-03-30 23:03:00,
2013-03-30 19:04:00,53.2,29.0,29.59,SSW,202,0.0,0.0,39,0.00,,,0.00,WUHU21623XXSP,2013-03-30 23:04:00,
2013-03-30 19:07:00,53.2,28.8,29.59,SSW,202,0.0,0.0,39,0.00,,,0.00,WUHU21623XXSP,2013-03-30 23:07:00,
2013-03-30 19:08:00,53.1,29.4,29.58,SSW,202,0.0,0.0,40,0.00,,,0.00,WUHU21623XXSP,2013-03-30 23:08:00,
2013-03-30 19:09:00,53.1,29.4,29.58,SSW,202,0.0,0.0,40,0.00,,,0.00,WUHU21623XXSP,2013-03-30 23:09:00,
2013-03-30 19:12:00,52.9,29.2,29.58,WSW,247,0.0,0.0,40,0.00,,,0.00,WUHU21623XXSP,2013-03-30 23:12:00,
2013-03-30 19:13:00,52.9,29.2,29.58,WSW,247,0.0,0.0,40,0.00,,,0.00,WUHU21623XXSP,2013-03-30 23:13:00,
2013-03-30 19:14:00,52.9,29.2,29.58,WSW,247,0.0,0.0,40,0.00,,,0.00,WUHU21623XXSP,2013-03-30 23:14:00,
2013-03-30 19:18:00,52.5,29.4,29.58,SW,225,0.0,0.0,41,0.00,,,0.00,WUHU21623XXSP,2013-03-30 23:18:00,
2013-03-30 19:19:00,52.3,29.3,29.58,SSW,202,0.0,0.0,41,0.00,,,0.00,WUHU21623XXSP,2013-03-30 23:19:00,
2013-03-30 19:20:00,52.3,29.3,29.58,SSW,202,0.0,0.0,41,0.00,,,0.00,WUHU21623XXSP,2013-03-30 23:20:00,
2013-03-30 19:23:00,52.3,29.3,29.58,SSW,202,0.0,0.0,41,0.00,,,0.00,WUHU21623XXSP,2013-03-30 23:23:00,
2013-03-30 19:24:00,52.2,29.1,29.58,SW,225,0.0,0.0,41,0.00,,,0.00,WUHU21623XXSP,2013-03-30 23:24:00,
2013-03-30 19:25:00,52.2,29.1,29.58,SW,225,0.0,0.0,41,0.00,,,0.00,WUHU21623XXSP,2013-03-30 23:25:00,
2013-03-30 19:28:00,52.0,29.1,29.58,SW,225,0.0,0.0,42,0.00,,,0.00,WUHU21623XXSP,2013-03-30 23:28:00,
2013-03-30 19:29:00,52.0,29.1,29.58,SW,225,0.0,0.0,42,0.00,,,0.00,WUHU21623XXSP,2013-03-30 23:29:00,
2013-03-30 19:30:00,51.8,29.5,29.58,SW,225,0.0,0.0,42,0.00,,,0.00,WUHU21623XXSP,2013-03-30 23:30:00,
2013-03-30 19:33:00,51.6,29.2,29.58,South,180,0.0,0.0,42,0.00,,,0.00,WUHU21623XXSP,2013-03-30 23:33:00,
2013-03-30 19:34:00,51.6,29.2,29.58,SSW,202,0.0,0.0,42,0.00,,,0.00,WUHU21623XXSP,2013-03-30 23:34:00,
2013-03-30 19:35:00,51.6,29.2,29.58,SSW,202,0.0,0.0,42,0.00,,,0.00,WUHU21623XXSP,2013-03-30 23:35:00,
2013-03-30 19:38:00,51.4,29.0,29.58,SSW,202,0.0,0.0,43,0.00,,,0.00,WUHU21623XXSP,2013-03-30 23:38:00,
2013-03-30 19:39:00,51.4,29.0,29.58,SSW,202,0.0,0.0,43,0.00,,,0.00,WUHU21623XXSP,2013-03-30 23:39:00,
2013-03-30 19:40:00,51.4,29.0,29.58,SSW,202,0.0,0.0,43,0.00,,,0.00,WUHU21623XXSP,2013-03-30 23:40:00,
2013-03-30 19:43:00,51.1,29.2,29.57,South,180,0.0,0.0,43,0.00,,,0.00,WUHU21623XXSP,2013-03-30 23:43:00,
2013-03-30 19:44:00,51.1,29.2,29.57,South,180,0.0,0.0,43,0.00,,,0.00,WUHU21623XXSP,2013-03-30 23:44:00,
2013-03-30 19:45:00,50.9,29.6,29.58,SSW,202,0.0,0.0,44,0.00,,,0.00,WUHU21623XXSP,2013-03-30 23:45:00,
2013-03-30 19:48:00,50.7,29.5,29.58,South,180,0.0,0.0,44,0.00,,,0.00,WUHU21623XXSP,2013-03-30 23:48:00,
2013-03-30 19:49:00,50.7,29.5,29.58,South,180,0.0,0.0,44,0.00,,,0.00,WUHU21623XXSP,2013-03-30 23:49:00,
2013-03-30 19:50:00,50.7,29.5,29.58,South,180,0.0,0.0,44,0.00,,,0.00,WUHU21623XXSP,2013-03-30 23:50:00,
2013-03-30 19:54:00,50.4,29.3,29.58,South,180,0.0,0.0,45,0.00,,,0.00,WUHU21623XXSP,2013-03-30 23:54:00,
2013-03-30 19:55:00,50.2,29.6,29.58,South,180,0.0,0.0,45,0.00,,,0.00,WUHU21623XXSP,2013-03-30 23:55:00,
2013-03-30 19:59:00,49.8,29.8,29.58,SW,225,0.0,0.0,46,0.00,,,0.00,WUHU21623XXSP,2013-03-30 23:59:00,
2013-03-30 20:00:00,49.8,29.8,29.58,SSW,202,0.0,0.0,46,0.00,,,0.00,WUHU21623XXSP,2013-03-31 00:00:00,
2013-03-30 20:05:00,49.6,29.6,29.57,SSW,202,0.0,0.0,46,0.00,,,0.00,WUHU21623XXSP,2013-03-31 00:05:00,
2013-03-30 20:10:00,49.5,30.1,29.57,SSW,202,0.0,0.0,47,0.00,,,0.00,WUHU21623XXSP,2013-03-31 00:10:00,
2013-03-30 20:11:00,49.3,29.8,29.57,South,180,0.0,0.0,47,0.00,,,0.00,WUHU21623XXSP,2013-03-31 00:11:00,
2013-03-30 20:12:00,49.3,29.8,29.57,South,180,0.0,0.0,47,0.00,,,0.00,WUHU21623XXSP,2013-03-31 00:12:00,
2013-03-30 20:15:00,49.1,30.3,29.57,South,180,0.0,0.0,48,0.00,,,0.00,WUHU21623XXSP,2013-03-31 00:15:00,
2013-03-30 20:17:00,48.9,30.2,29.57,South,180,0.0,0.0,48,0.00,,,0.00,WUHU21623XXSP,2013-03-31 00:17:00,
2013-03-30 20:20:00,48.7,30.4,29.57,South,180,0.0,0.0,49,0.00,,,0.00,WUHU21623XXSP,2013-03-31 00:20:00,
2013-03-30 20:22:00,48.7,30.4,29.57,South,180,0.0,0.0,49,0.00,,,0.00,WUHU21623XXSP,2013-03-31 00:22:00,
2013-03-30 20:25:00,48.4,30.0,29.57,South,180,0.0,0.0,49,0.00,,,0.00,WUHU21623XXSP,2013-03-31 00:25:00,
2013-03-30 20:27:00,48.2,29.8,29.57,South,180,0.0,0.0,49,0.00,,,0.00,WUHU21623XXSP,2013-03-31 00:27:00,
2013-03-30 20:30:00,48.0,29.7,29.56,South,180,0.0,0.0,49,0.00,,,0.00,WUHU21623XXSP,2013-03-31 00:30:00,
2013-03-30 20:32:00,47.7,29.4,29.56,South,180,0.0,0.0,49,0.00,,,0.00,WUHU21623XXSP,2013-03-31 00:32:00,
2013-03-30 20:35:00,47.5,29.2,29.56,South,180,0.0,0.0,49,0.00,,,0.00,WUHU21623XXSP,2013-03-31 00:35:00,
2013-03-30 20:37:00,47.3,29.6,29.56,South,180,0.0,0.0,50,0.00,,,0.00,WUHU21623XXSP,2013-03-31 00:37:00,
2013-03-30 20:40:00,47.1,29.4,29.56,South,180,0.0,0.0,50,0.00,,,0.00,WUHU21623XXSP,2013-03-31 00:40:00,
2013-03-30 20:42:00,46.8,29.1,29.56,South,180,0.0,0.0,50,0.00,,,0.00,WUHU21623XXSP,2013-03-31 00:42:00,
2013-03-30 20:43:00,46.8,29.1,29.56,South,180,0.0,0.0,50,0.00,,,0.00,WUHU21623XXSP,2013-03-31 00:43:00,
2013-03-30 20:45:00,46.6,29.1,29.56,South,180,0.0,0.0,50,0.00,,,0.00,WUHU21623XXSP,2013-03-31 00:45:00,
2013-03-30 20:47:00,46.4,28.9,29.56,South,180,0.0,0.0,51,0.00,,,0.00,WUHU21623XXSP,2013-03-31 00:47:00,
2013-03-30 20:48:00,46.4,28.9,29.56,South,180,0.0,0.0,51,0.00,,,0.00,WUHU21623XXSP,2013-03-31 00:48:00,
2013-03-30 20:50:00,46.2,29.0,29.56,South,180,0.0,0.0,51,0.00,,,0.00,WUHU21623XXSP,2013-03-31 00:50:00,
2013-03-30 20:51:00,46.0,28.9,29.56,South,180,0.0,0.0,51,0.00,,,0.00,WUHU21623XXSP,2013-03-31 00:51:00,
2013-03-30 20:53:00,46.0,28.9,29.56,South,180,0.0,0.0,51,0.00,,,0.00,WUHU21623XXSP,2013-03-31 00:53:00,
2013-03-30 20:55:00,45.5,28.9,29.56,South,180,0.0,0.0,52,0.00,,,0.00,WUHU21623XXSP,2013-03-31 00:55:00,
2013-03-30 20:57:00,45.5,28.9,29.56,South,180,0.0,0.0,52,0.00,,,0.00,WUHU21623XXSP,2013-03-31 00:57:00,
2013-03-30 20:58:00,45.3,28.7,29.56,South,180,0.0,0.0,52,0.00,,,0.00,WUHU21623XXSP,2013-03-31 00:58:00,
2013-03-30 20:59:00,45.3,28.7,29.56,South,180,0.0,0.0,52,0.00,,,0.00,WUHU21623XXSP,2013-03-31 00:59:00,
2013-03-30 21:00:00,45.1,28.7,29.57,South,180,0.0,0.0,52,0.00,,,0.00,WUHU21623XXSP,2013-03-31 01:00:00,
2013-03-30 21:02:00,45.0,28.4,29.57,South,180,0.0,0.0,52,0.00,,,0.00,WUHU21623XXSP,2013-03-31 01:02:00,
2013-03-30 21:03:00,45.0,28.4,29.57,South,180,0.0,0.0,52,0.00,,,0.00,WUHU21623XXSP,2013-03-31 01:03:00,
2013-03-30 21:04:00,44.8,28.4,29.57,South,180,0.0,0.0,52,0.00,,,0.00,WUHU21623XXSP,2013-03-31 01:04:00,
2013-03-30 21:06:00,44.8,28.4,29.57,South,180,0.0,0.0,52,0.00,,,0.00,WUHU21623XXSP,2013-03-31 01:06:00,
2013-03-30 21:07:00,44.4,28.3,29.57,South,180,0.0,0.0,53,0.00,,,0.00,WUHU21623XXSP,2013-03-31 01:07:00,
2013-03-30 21:08:00,44.4,28.3,29.57,South,180,0.0,0.0,53,0.00,,,0.00,WUHU21623XXSP,2013-03-31 01:08:00,
2013-03-30 21:09:00,44.4,28.3,29.56,South,180,0.0,0.0,53,0.00,,,0.00,WUHU21623XXSP,2013-03-31 01:09:00,
2013-03-30 21:11:00,44.2,28.3,29.57,South,180,0.0,0.0,53,0.00,,,0.00,WUHU21623XXSP,2013-03-31 01:11:00,
2013-03-30 21:13:00,44.1,28.0,29.56,South,180,0.0,0.0,53,0.00,,,0.00,WUHU21623XXSP,2013-03-31 01:13:00,
2013-03-30 21:14:00,44.1,28.0,29.56,South,180,0.0,0.0,53,0.00,,,0.00,WUHU21623XXSP,2013-03-31 01:14:00,
2013-03-30 21:17:00,43.7,28.1,29.56,South,180,0.0,0.0,54,0.00,,,0.00,WUHU21623XXSP,2013-03-31 01:17:00,
2013-03-30 21:18:00,43.7,28.1,29.56,South,180,0.0,0.0,54,0.00,,,0.00,WUHU21623XXSP,2013-03-31 01:18:00,
2013-03-30 21:19:00,43.5,27.9,29.56,South,180,0.0,0.0,54,0.00,,,0.00,WUHU21623XXSP,2013-03-31 01:19:00,
2013-03-30 21:22:00,43.5,27.9,29.56,South,180,0.0,0.0,54,0.00,,,0.00,WUHU21623XXSP,2013-03-31 01:22:00,
2013-03-30 21:23:00,43.5,27.9,29.56,South,180,0.0,0.0,54,0.00,,,0.00,WUHU21623XXSP,2013-03-31 01:23:00,
2013-03-30 21:24:00,43.3,27.8,29.56,South,180,0.0,0.0,54,0.00,,,0.00,WUHU21623XXSP,2013-03-31 01:24:00,
2013-03-30 21:27:00,43.2,27.8,29.56,South,180,0.0,0.0,54,0.00,,,0.00,WUHU21623XXSP,2013-03-31 01:27:00,
2013-03-30 21:28:00,43.0,27.8,29.56,South,180,0.0,0.0,55,0.00,,,0.00,WUHU21623XXSP,2013-03-31 01:28:00,
2013-03-30 21:29:00,43.0,27.8,29.56,SSE,157,0.0,0.0,55,0.00,,,0.00,WUHU21623XXSP,2013-03-31 01:29:00,
2013-03-30 21:32:00,43.0,27.8,29.55,SSE,157,0.0,0.0,55,0.00,,,0.00,WUHU21623XXSP,2013-03-31 01:32:00,
2013-03-30 21:33:00,43.0,27.8,29.55,SSE,157,0.0,0.0,55,0.00,,,0.00,WUHU21623XXSP,2013-03-31 01:33:00,
2013-03-30 21:35:00,43.0,28.3,29.55,SSE,157,0.0,0.0,56,0.00,,,0.00,WUHU21623XXSP,2013-03-31 01:35:00,
2013-03-30 21:37:00,42.8,28.1,29.55,SSE,157,0.0,0.0,56,0.00,,,0.00,WUHU21623XXSP,2013-03-31 01:37:00,
2013-03-30 21:38:00,42.6,27.9,29.55,SSE,157,0.0,0.0,56,0.00,,,0.00,WUHU21623XXSP,2013-03-31 01:38:00,
2013-03-30 21:40:00,42.6,27.9,29.55,SSE,157,0.0,0.0,56,0.00,,,0.00,WUHU21623XXSP,2013-03-31 01:40:00,
2013-03-30 21:43:00,42.6,28.4,29.55,SSE,157,0.0,0.0,57,0.00,,,0.00,WUHU21623XXSP,2013-03-31 01:43:00,
2013-03-30 21:44:00,42.6,28.4,29.55,SSE,157,0.0,0.0,57,0.00,,,0.00,WUHU21623XXSP,2013-03-31 01:44:00,
2013-03-30 21:45:00,42.6,28.4,29.55,SSE,157,0.0,0.0,57,0.00,,,0.00,WUHU21623XXSP,2013-03-31 01:45:00,
2013-03-30 21:48:00,42.4,28.2,29.55,SSE,157,0.0,0.0,57,0.00,,,0.00,WUHU21623XXSP,2013-03-31 01:48:00,
2013-03-30 21:49:00,42.3,28.0,29.55,SSE,157,0.0,0.0,57,0.00,,,0.00,WUHU21623XXSP,2013-03-31 01:49:00,
2013-03-30 21:50:00,42.3,28.0,29.55,SSE,157,0.0,0.0,57,0.00,,,0.00,WUHU21623XXSP,2013-03-31 01:50:00,
2013-03-30 21:53:00,41.9,27.7,29.55,SSE,157,0.0,0.0,57,0.00,,,0.00,WUHU21623XXSP,2013-03-31 01:53:00,
2013-03-30 21:54:00,41.9,27.7,29.55,SSE,157,0.0,0.0,57,0.00,,,0.00,WUHU21623XXSP,2013-03-31 01:54:00,
2013-03-30 21:55:00,41.7,27.5,29.55,SSE,157,0.0,0.0,57,0.00,,,0.00,WUHU21623XXSP,2013-03-31 01:55:00,
2013-03-30 21:58:00,41.7,27.5,29.55,SSE,157,0.0,0.0,57,0.00,,,0.00,WUHU21623XXSP,2013-03-31 01:58:00,
2013-03-30 21:59:00,41.7,27.5,29.55,SSE,157,0.0,0.0,57,0.00,,,0.00,WUHU21623XXSP,2013-03-31 01:59:00,
2013-03-30 22:00:00,41.5,27.5,29.55,SSE,157,0.0,0.0,57,0.00,,,0.00,WUHU21623XXSP,2013-03-31 02:00:00,
2013-03-30 22:04:00,41.2,27.2,29.55,SSE,157,0.0,0.0,57,0.00,,,0.00,WUHU21623XXSP,2013-03-31 02:04:00,
2013-03-30 22:05:00,41.2,27.2,29.55,SSE,157,0.0,0.0,57,0.00,,,0.00,WUHU21623XXSP,2013-03-31 02:05:00,
2013-03-30 22:09:00,41.0,27.5,29.55,SSE,157,0.0,0.0,58,0.00,,,0.00,WUHU21623XXSP,2013-03-31 02:09:00,
2013-03-30 22:10:00,41.0,27.3,29.55,SSE,157,0.0,0.0,58,0.00,,,0.00,WUHU21623XXSP,2013-03-31 02:10:00,
2013-03-30 22:14:00,40.8,27.3,29.55,SSE,157,0.0,0.0,58,0.00,,,0.00,WUHU21623XXSP,2013-03-31 02:14:00,
2013-03-30 22:15:00,40.8,27.1,29.54,SSE,157,0.0,0.0,58,0.00,,,0.00,WUHU21623XXSP,2013-03-31 02:15:00,
2013-03-30 22:16:00,40.8,27.1,29.54,SSE,157,0.0,0.0,58,0.00,,,0.00,WUHU21623XXSP,2013-03-31 02:16:00,
2013-03-30 22:19:00,40.8,27.1,29.54,SSE,157,0.0,0.0,58,0.00,,,0.00,WUHU21623XXSP,2013-03-31 02:19:00,
2013-03-30 22:20:00,40.8,27.1,29.54,SSE,157,0.0,0.0,58,0.00,,,0.00,WUHU21623XXSP,2013-03-31 02:20:00,
2013-03-30 22:21:00,40.8,27.6,29.54,SSE,157,0.0,0.0,59,0.00,,,0.00,WUHU21623XXSP,2013-03-31 02:21:00,
2013-03-30 22:24:00,40.6,27.4,29.54,SSE,157,0.0,0.0,59,0.00,,,0.00,WUHU21623XXSP,2013-03-31 02:24:00,
2013-03-30 22:25:00,40.6,27.4,29.54,SSE,157,0.0,0.0,59,0.00,,,0.00,WUHU21623XXSP,2013-03-31 02:25:00,
2013-03-30 22:26:00,40.6,27.4,29.54,SSE,157,0.0,0.0,59,0.00,,,0.00,WUHU21623XXSP,2013-03-31 02:26:00,
2013-03-30 22:29:00,40.6,27.4,29.54,SSE,157,0.0,0.0,59,0.00,,,0.00,WUHU21623XXSP,2013-03-31 02:29:00,
2013-03-30 22:30:00,40.6,27.4,29.54,SSE,157,0.0,0.0,59,0.00,,,0.00,WUHU21623XXSP,2013-03-31 02:30:00,
2013-03-30 22:31:00,40.6,27.4,29.54,SSE,157,0.0,0.0,59,0.00,,,0.00,WUHU21623XXSP,2013-03-31 02:31:00,
2013-03-30 22:32:00,40.5,27.2,29.54,SSE,157,0.0,0.0,59,0.00,,,0.00,WUHU21623XXSP,2013-03-31 02:32:00,
2013-03-30 22:35:00,40.5,27.2,29.54,SSE,157,0.0,0.0,59,0.00,,,0.00,WUHU21623XXSP,2013-03-31 02:35:00,
2013-03-30 22:36:00,40.3,27.2,29.54,SSE,157,0.0,0.0,59,0.00,,,0.00,WUHU21623XXSP,2013-03-31 02:36:00,
2013-03-30 22:37:00,40.3,27.2,29.54,SSE,157,0.0,0.0,59,0.00,,,0.00,WUHU21623XXSP,2013-03-31 02:37:00,
2013-03-30 22:40:00,40.3,27.1,29.54,SSE,157,0.0,0.0,59,0.00,,,0.00,WUHU21623XXSP,2013-03-31 02:40:00,
2013-03-30 22:42:00,40.3,27.5,29.54,SSE,157,0.0,0.0,60,0.00,,,0.00,WUHU21623XXSP,2013-03-31 02:42:00,
2013-03-30 22:45:00,40.1,27.3,29.54,SSE,157,0.0,0.0,60,0.00,,,0.00,WUHU21623XXSP,2013-03-31 02:45:00,
2013-03-30 22:47:00,40.1,27.3,29.54,SSE,157,0.0,0.0,60,0.00,,,0.00,WUHU21623XXSP,2013-03-31 02:47:00,
2013-03-30 22:50:00,40.1,27.3,29.53,SSE,157,0.0,0.0,60,0.00,,,0.00,WUHU21623XXSP,2013-03-31 02:50:00,
2013-03-30 22:51:00,39.9,27.3,29.53,SSE,157,0.0,0.0,60,0.00,,,0.00,WUHU21623XXSP,2013-03-31 02:51:00,
2013-03-30 22:52:00,39.9,27.3,29.53,SSE,157,0.0,0.0,60,0.00,,,0.00,WUHU21623XXSP,2013-03-31 02:52:00,
2013-03-30 22:55:00,39.9,27.5,29.53,SSE,157,0.0,0.0,61,0.00,,,0.00,WUHU21623XXSP,2013-03-31 02:55:00,
2013-03-30 22:56:00,39.9,27.5,29.53,SSE,157,0.0,0.0,61,0.00,,,0.00,WUHU21623XXSP,2013-03-31 02:56:00,
2013-03-30 22:57:00,39.9,27.5,29.53,SSE,157,0.0,0.0,61,0.00,,,0.00,WUHU21623XXSP,2013-03-31 02:57:00,
2013-03-30 23:00:00,39.9,28.1,29.53,SSE,157,0.0,0.0,62,0.00,,,0.00,WUHU21623XXSP,2013-03-31 03:00:00,
2013-03-30 23:02:00,39.9,27.9,29.53,SSE,157,0.0,0.0,62,0.00,,,0.00,WUHU21623XXSP,2013-03-31 03:02:00,
2013-03-30 23:05:00,39.9,27.9,29.53,SSE,157,0.0,0.0,62,0.00,,,0.00,WUHU21623XXSP,2013-03-31 03:05:00,
2013-03-30 23:07:00,39.9,27.9,29.53,SSE,157,0.0,0.0,62,0.00,,,0.00,WUHU21623XXSP,2013-03-31 03:07:00,
2013-03-30 23:10:00,39.7,27.7,29.53,SSE,157,0.0,0.0,62,0.00,,,0.00,WUHU21623XXSP,2013-03-31 03:10:00,
2013-03-30 23:12:00,39.7,27.7,29.53,SSE,157,0.0,0.0,62,0.00,,,0.00,WUHU21623XXSP,2013-03-31 03:12:00,
2013-03-30 23:13:00,39.6,27.7,29.53,SSE,157,0.0,0.0,62,0.00,,,0.00,WUHU21623XXSP,2013-03-31 03:13:00,
2013-03-30 23:14:00,39.6,27.7,29.53,SSE,157,0.0,0.0,62,0.00,,,0.00,WUHU21623XXSP,2013-03-31 03:14:00,
2013-03-30 23:15:00,39.4,27.4,29.53,SSE,157,0.0,0.0,62,0.00,,,0.00,WUHU21623XXSP,2013-03-31 03:15:00,
2013-03-30 23:17:00,39.4,27.4,29.53,SSE,157,0.0,0.0,62,0.00,,,0.00,WUHU21623XXSP,2013-03-31 03:17:00,
2013-03-30 23:18:00,39.4,27.4,29.53,SSE,157,0.0,0.0,62,0.00,,,0.00,WUHU21623XXSP,2013-03-31 03:18:00,
2013-03-30 23:19:00,39.0,27.0,29.52,SSE,157,0.0,0.0,62,0.00,,,0.00,WUHU21623XXSP,2013-03-31 03:19:00,
2013-03-30 23:20:00,39.0,27.0,29.52,SSE,157,0.0,0.0,62,0.00,,,0.00,WUHU21623XXSP,2013-03-31 03:20:00,
2013-03-30 23:22:00,38.8,27.0,29.52,SSE,157,0.0,0.0,61,0.00,,,0.00,WUHU21623XXSP,2013-03-31 03:22:00,
2013-03-30 23:23:00,38.8,26.9,29.52,SSE,157,0.0,0.0,62,0.00,,,0.00,WUHU21623XXSP,2013-03-31 03:23:00,
2013-03-30 23:24:00,38.8,26.9,29.52,SSE,157,0.0,0.0,62,0.00,,,0.00,WUHU21623XXSP,2013-03-31 03:24:00,
2013-03-30 23:25:00,38.8,26.9,29.52,SSE,157,0.0,0.0,62,0.00,,,0.00,WUHU21623XXSP,2013-03-31 03:25:00,
2013-03-30 23:27:00,38.5,26.5,29.52,SSE,157,0.0,0.0,62,0.00,,,0.00,WUHU21623XXSP,2013-03-31 03:27:00,
2013-03-30 23:28:00,38.5,26.5,29.52,SSE,157,0.0,0.0,62,0.00,,,0.00,WUHU21623XXSP,2013-03-31 03:28:00,
2013-03-30 23:29:00,38.5,26.5,29.52,SSE,157,0.0,0.0,62,0.00,,,0.00,WUHU21623XXSP,2013-03-31 03:29:00,
2013-03-30 23:32:00,38.5,26.9,29.52,SSE,157,0.0,0.0,63,0.00,,,0.00,WUHU21623XXSP,2013-03-31 03:32:00,
2013-03-30 23:33:00,38.5,26.9,29.52,SSE,157,0.0,0.0,63,0.00,,,0.00,WUHU21623XXSP,2013-03-31 03:33:00,
2013-03-30 23:34:00,38.5,26.9,29.52,SSE,157,0.0,0.0,63,0.00,,,0.00,WUHU21623XXSP,2013-03-31 03:34:00,
2013-03-30 23:37:00,38.5,26.9,29.52,SSE,157,0.0,0.0,63,0.00,,,0.00,WUHU21623XXSP,2013-03-31 03:37:00,
2013-03-30 23:39:00,38.5,26.9,29.52,SSE,157,0.0,0.0,63,0.00,,,0.00,WUHU21623XXSP,2013-03-31 03:39:00,
2013-03-30 23:42:00,38.3,26.7,29.51,SSE,157,0.0,0.0,63,0.00,,,0.00,WUHU21623XXSP,2013-03-31 03:42:00,
2013-03-30 23:44:00,38.3,26.7,29.51,SSE,157,0.0,0.0,63,0.00,,,0.00,WUHU21623XXSP,2013-03-31 03:44:00,
2013-03-30 23:45:00,38.3,26.7,29.51,SSE,157,0.0,0.0,63,0.00,,,0.00,WUHU21623XXSP,2013-03-31 03:45:00,
2013-03-30 23:47:00,38.1,26.6,29.51,SSE,157,0.0,0.0,63,0.00,,,0.00,WUHU21623XXSP,2013-03-31 03:47:00,
2013-03-30 23:49:00,38.1,26.6,29.51,SSE,157,0.0,0.0,63,0.00,,,0.00,WUHU21623XXSP,2013-03-31 03:49:00,
2013-03-30 23:50:00,38.1,26.6,29.51,SSE,157,0.0,0.0,63,0.00,,,0.00,WUHU21623XXSP,2013-03-31 03:50:00,
2013-03-30 23:53:00,37.9,26.6,29.51,SSE,157,0.0,0.0,63,0.00,,,0.00,WUHU21623XXSP,2013-03-31 03:53:00,
2013-03-30 23:54:00,37.9,26.4,29.51,SSE,157,0.0,0.0,63,0.00,,,0.00,WUHU21623XXSP,2013-03-31 03:54:00,
2013-03-30 23:55:00,37.8,26.4,29.51,SSE,157,0.0,0.0,63,0.00,,,0.00,WUHU21623XXSP,2013-03-31 03:55:00,
2013-03-30 23:58:00,37.8,26.3,29.51,SSE,157,0.0,0.0,63,0.00,,,0.00,WUHU21623XXSP,2013-03-31 03:58:00,
2013-03-30 23:59:00,37.6,26.1,29.51,SSE,157,0.0,0.0,63,0.00,,,0.00,WUHU21623XXSP,2013-03-31 03:59:00,